<?xml version="1.0" encoding="UTF-8" standalone="no" ?>
<gpx xmlns="http://www.topografix.com/GPX/1/1" xmlns:xsi="http://www.w3.org/2001/XMLSchema-instance" xsi:schemaLocation="http://www.topografix.com/GPX/1/1 http://www.topografix.com/GPX/1/1/gpx.xsd" version="1.1" creator="VisuGPX - https://www.visugpx.com">
  <metadata>
    <name>Seux - 11km</name>
    <desc><![CDATA[Walkmeter Marche 7 oct. 2012 09:04:46]]></desc>
  </metadata>
  <trk>
    <name><![CDATA[Chemins en Somme]]></name>
    <trkseg>
      <trkpt lat="49.8754" lon="2.10525">
        <ele>108.8</ele>
        <time>2012-10-07T07:04:46Z</time>
      </trkpt>
      <trkpt lat="49.87539" lon="2.10542">
        <ele>107.4</ele>
        <time>2012-10-07T07:04:50Z</time>
      </trkpt>
      <trkpt lat="49.87549" lon="2.10526">
        <ele>103</ele>
        <time>2012-10-07T07:05:00Z</time>
      </trkpt>
      <trkpt lat="49.87554" lon="2.10506">
        <ele>100.2</ele>
        <time>2012-10-07T07:05:12Z</time>
      </trkpt>
      <trkpt lat="49.87561" lon="2.10486">
        <ele>100.8</ele>
        <time>2012-10-07T07:05:22Z</time>
      </trkpt>
      <trkpt lat="49.87567" lon="2.10464">
        <ele>104.1</ele>
        <time>2012-10-07T07:05:34Z</time>
      </trkpt>
      <trkpt lat="49.87574" lon="2.10446">
        <ele>102.9</ele>
        <time>2012-10-07T07:05:47Z</time>
      </trkpt>
      <trkpt lat="49.87577" lon="2.10424">
        <ele>104</ele>
        <time>2012-10-07T07:05:58Z</time>
      </trkpt>
      <trkpt lat="49.87581" lon="2.10404">
        <ele>106</ele>
        <time>2012-10-07T07:06:08Z</time>
      </trkpt>
      <trkpt lat="49.87587" lon="2.10384">
        <ele>104.5</ele>
        <time>2012-10-07T07:06:20Z</time>
      </trkpt>
      <trkpt lat="49.87592" lon="2.10364">
        <ele>102.7</ele>
        <time>2012-10-07T07:06:32Z</time>
      </trkpt>
      <trkpt lat="49.876" lon="2.10345">
        <ele>103.2</ele>
        <time>2012-10-07T07:06:45Z</time>
      </trkpt>
      <trkpt lat="49.87606" lon="2.10324">
        <ele>107.6</ele>
        <time>2012-10-07T07:06:57Z</time>
      </trkpt>
      <trkpt lat="49.87612" lon="2.10301">
        <ele>105.6</ele>
        <time>2012-10-07T07:07:08Z</time>
      </trkpt>
      <trkpt lat="49.8762" lon="2.10276">
        <ele>107.6</ele>
        <time>2012-10-07T07:07:23Z</time>
      </trkpt>
      <trkpt lat="49.87627" lon="2.10258">
        <ele>110.1</ele>
        <time>2012-10-07T07:07:37Z</time>
      </trkpt>
      <trkpt lat="49.87631" lon="2.10236">
        <ele>111.2</ele>
        <time>2012-10-07T07:07:48Z</time>
      </trkpt>
      <trkpt lat="49.87636" lon="2.10215">
        <ele>112.4</ele>
        <time>2012-10-07T07:08:00Z</time>
      </trkpt>
      <trkpt lat="49.87639" lon="2.10194">
        <ele>115.4</ele>
        <time>2012-10-07T07:08:09Z</time>
      </trkpt>
      <trkpt lat="49.87645" lon="2.10175">
        <ele>112.5</ele>
        <time>2012-10-07T07:08:21Z</time>
      </trkpt>
      <trkpt lat="49.87651" lon="2.10156">
        <ele>108.8</ele>
        <time>2012-10-07T07:08:32Z</time>
      </trkpt>
      <trkpt lat="49.87661" lon="2.10139">
        <ele>111.2</ele>
        <time>2012-10-07T07:08:43Z</time>
      </trkpt>
      <trkpt lat="49.87669" lon="2.10122">
        <ele>112.5</ele>
        <time>2012-10-07T07:08:54Z</time>
      </trkpt>
      <trkpt lat="49.87679" lon="2.10105">
        <ele>112.7</ele>
        <time>2012-10-07T07:09:04Z</time>
      </trkpt>
      <trkpt lat="49.87687" lon="2.10086">
        <ele>113</ele>
        <time>2012-10-07T07:09:12Z</time>
      </trkpt>
      <trkpt lat="49.87694" lon="2.10068">
        <ele>113.2</ele>
        <time>2012-10-07T07:09:22Z</time>
      </trkpt>
      <trkpt lat="49.87701" lon="2.10049">
        <ele>113.5</ele>
        <time>2012-10-07T07:09:31Z</time>
      </trkpt>
      <trkpt lat="49.87708" lon="2.1003">
        <ele>113.7</ele>
        <time>2012-10-07T07:09:39Z</time>
      </trkpt>
      <trkpt lat="49.87716" lon="2.10013">
        <ele>113.9</ele>
        <time>2012-10-07T07:09:49Z</time>
      </trkpt>
      <trkpt lat="49.87724" lon="2.09996">
        <ele>114.2</ele>
        <time>2012-10-07T07:09:58Z</time>
      </trkpt>
      <trkpt lat="49.87733" lon="2.09979">
        <ele>114.4</ele>
        <time>2012-10-07T07:10:06Z</time>
      </trkpt>
      <trkpt lat="49.8774" lon="2.0996">
        <ele>114.7</ele>
        <time>2012-10-07T07:10:16Z</time>
      </trkpt>
      <trkpt lat="49.87748" lon="2.09943">
        <ele>115</ele>
        <time>2012-10-07T07:10:27Z</time>
      </trkpt>
      <trkpt lat="49.87758" lon="2.09926">
        <ele>115.2</ele>
        <time>2012-10-07T07:10:37Z</time>
      </trkpt>
      <trkpt lat="49.87766" lon="2.09909">
        <ele>115.5</ele>
        <time>2012-10-07T07:10:47Z</time>
      </trkpt>
      <trkpt lat="49.87774" lon="2.09891">
        <ele>115.7</ele>
        <time>2012-10-07T07:10:56Z</time>
      </trkpt>
      <trkpt lat="49.87783" lon="2.09874">
        <ele>115.2</ele>
        <time>2012-10-07T07:11:05Z</time>
      </trkpt>
      <trkpt lat="49.8779" lon="2.09855">
        <ele>112.9</ele>
        <time>2012-10-07T07:11:14Z</time>
      </trkpt>
      <trkpt lat="49.87798" lon="2.09838">
        <ele>113</ele>
        <time>2012-10-07T07:11:24Z</time>
      </trkpt>
      <trkpt lat="49.87806" lon="2.09819">
        <ele>116.6</ele>
        <time>2012-10-07T07:11:33Z</time>
      </trkpt>
      <trkpt lat="49.87814" lon="2.09801">
        <ele>113.5</ele>
        <time>2012-10-07T07:11:43Z</time>
      </trkpt>
      <trkpt lat="49.87822" lon="2.09782">
        <ele>110.2</ele>
        <time>2012-10-07T07:11:53Z</time>
      </trkpt>
      <trkpt lat="49.87829" lon="2.09763">
        <ele>107.3</ele>
        <time>2012-10-07T07:12:04Z</time>
      </trkpt>
      <trkpt lat="49.87837" lon="2.09744">
        <ele>110.3</ele>
        <time>2012-10-07T07:12:13Z</time>
      </trkpt>
      <trkpt lat="49.87843" lon="2.09723">
        <ele>111.4</ele>
        <time>2012-10-07T07:12:23Z</time>
      </trkpt>
      <trkpt lat="49.8785" lon="2.09704">
        <ele>112.2</ele>
        <time>2012-10-07T07:12:33Z</time>
      </trkpt>
      <trkpt lat="49.87856" lon="2.09685">
        <ele>113.1</ele>
        <time>2012-10-07T07:12:44Z</time>
      </trkpt>
      <trkpt lat="49.87863" lon="2.09666">
        <ele>114</ele>
        <time>2012-10-07T07:12:54Z</time>
      </trkpt>
      <trkpt lat="49.87869" lon="2.09647">
        <ele>112.1</ele>
        <time>2012-10-07T07:13:06Z</time>
      </trkpt>
      <trkpt lat="49.87876" lon="2.09628">
        <ele>111.8</ele>
        <time>2012-10-07T07:13:16Z</time>
      </trkpt>
      <trkpt lat="49.87884" lon="2.0961">
        <ele>112.6</ele>
        <time>2012-10-07T07:13:26Z</time>
      </trkpt>
      <trkpt lat="49.87889" lon="2.09591">
        <ele>113.4</ele>
        <time>2012-10-07T07:13:35Z</time>
      </trkpt>
      <trkpt lat="49.87897" lon="2.09572">
        <ele>114.3</ele>
        <time>2012-10-07T07:13:46Z</time>
      </trkpt>
      <trkpt lat="49.87903" lon="2.09552">
        <ele>115.1</ele>
        <time>2012-10-07T07:13:56Z</time>
      </trkpt>
      <trkpt lat="49.8791" lon="2.09534">
        <ele>115.5</ele>
        <time>2012-10-07T07:14:05Z</time>
      </trkpt>
      <trkpt lat="49.87917" lon="2.09515">
        <ele>112.6</ele>
        <time>2012-10-07T07:14:16Z</time>
      </trkpt>
      <trkpt lat="49.87925" lon="2.09498">
        <ele>112.6</ele>
        <time>2012-10-07T07:14:26Z</time>
      </trkpt>
      <trkpt lat="49.87934" lon="2.09479">
        <ele>113.2</ele>
        <time>2012-10-07T07:14:37Z</time>
      </trkpt>
      <trkpt lat="49.87939" lon="2.09458">
        <ele>110.1</ele>
        <time>2012-10-07T07:14:48Z</time>
      </trkpt>
      <trkpt lat="49.87946" lon="2.09439">
        <ele>109.7</ele>
        <time>2012-10-07T07:14:59Z</time>
      </trkpt>
      <trkpt lat="49.87952" lon="2.09419">
        <ele>114.4</ele>
        <time>2012-10-07T07:15:08Z</time>
      </trkpt>
      <trkpt lat="49.8796" lon="2.09401">
        <ele>111.8</ele>
        <time>2012-10-07T07:15:20Z</time>
      </trkpt>
      <trkpt lat="49.87974" lon="2.09396">
        <ele>111.3</ele>
        <time>2012-10-07T07:15:35Z</time>
      </trkpt>
      <trkpt lat="49.87987" lon="2.09407">
        <ele>115.8</ele>
        <time>2012-10-07T07:15:46Z</time>
      </trkpt>
      <trkpt lat="49.87999" lon="2.09419">
        <ele>114.6</ele>
        <time>2012-10-07T07:15:56Z</time>
      </trkpt>
      <trkpt lat="49.88011" lon="2.0943">
        <ele>113.4</ele>
        <time>2012-10-07T07:16:06Z</time>
      </trkpt>
      <trkpt lat="49.88023" lon="2.09441">
        <ele>117.1</ele>
        <time>2012-10-07T07:16:18Z</time>
      </trkpt>
      <trkpt lat="49.88035" lon="2.09453">
        <ele>112.4</ele>
        <time>2012-10-07T07:16:27Z</time>
      </trkpt>
      <trkpt lat="49.88048" lon="2.09463">
        <ele>109.8</ele>
        <time>2012-10-07T07:16:38Z</time>
      </trkpt>
      <trkpt lat="49.88061" lon="2.09473">
        <ele>114.6</ele>
        <time>2012-10-07T07:16:49Z</time>
      </trkpt>
      <trkpt lat="49.88071" lon="2.09486">
        <ele>116.9</ele>
        <time>2012-10-07T07:16:59Z</time>
      </trkpt>
      <trkpt lat="49.88084" lon="2.09496">
        <ele>113.4</ele>
        <time>2012-10-07T07:17:10Z</time>
      </trkpt>
      <trkpt lat="49.88095" lon="2.0951">
        <ele>115.1</ele>
        <time>2012-10-07T07:17:20Z</time>
      </trkpt>
      <trkpt lat="49.88107" lon="2.09521">
        <ele>111.5</ele>
        <time>2012-10-07T07:17:32Z</time>
      </trkpt>
      <trkpt lat="49.88118" lon="2.09534">
        <ele>112.5</ele>
        <time>2012-10-07T07:17:44Z</time>
      </trkpt>
      <trkpt lat="49.88131" lon="2.09544">
        <ele>113.5</ele>
        <time>2012-10-07T07:17:55Z</time>
      </trkpt>
      <trkpt lat="49.88143" lon="2.09555">
        <ele>114.3</ele>
        <time>2012-10-07T07:18:05Z</time>
      </trkpt>
      <trkpt lat="49.88156" lon="2.09567">
        <ele>112.3</ele>
        <time>2012-10-07T07:18:15Z</time>
      </trkpt>
      <trkpt lat="49.88168" lon="2.09578">
        <ele>111</ele>
        <time>2012-10-07T07:18:27Z</time>
      </trkpt>
      <trkpt lat="49.88179" lon="2.09589">
        <ele>111.5</ele>
        <time>2012-10-07T07:18:38Z</time>
      </trkpt>
      <trkpt lat="49.88191" lon="2.09601">
        <ele>112.1</ele>
        <time>2012-10-07T07:18:49Z</time>
      </trkpt>
      <trkpt lat="49.88203" lon="2.09613">
        <ele>112.6</ele>
        <time>2012-10-07T07:18:59Z</time>
      </trkpt>
      <trkpt lat="49.88215" lon="2.09624">
        <ele>109</ele>
        <time>2012-10-07T07:19:10Z</time>
      </trkpt>
      <trkpt lat="49.88227" lon="2.09636">
        <ele>112.8</ele>
        <time>2012-10-07T07:19:20Z</time>
      </trkpt>
      <trkpt lat="49.88239" lon="2.09647">
        <ele>113.1</ele>
        <time>2012-10-07T07:19:31Z</time>
      </trkpt>
      <trkpt lat="49.88253" lon="2.09658">
        <ele>113.7</ele>
        <time>2012-10-07T07:19:42Z</time>
      </trkpt>
      <trkpt lat="49.88265" lon="2.0967">
        <ele>116</ele>
        <time>2012-10-07T07:19:54Z</time>
      </trkpt>
      <trkpt lat="49.88278" lon="2.0968">
        <ele>112.6</ele>
        <time>2012-10-07T07:20:04Z</time>
      </trkpt>
      <trkpt lat="49.8829" lon="2.09692">
        <ele>112.4</ele>
        <time>2012-10-07T07:20:15Z</time>
      </trkpt>
      <trkpt lat="49.88303" lon="2.09702">
        <ele>115.7</ele>
        <time>2012-10-07T07:20:25Z</time>
      </trkpt>
      <trkpt lat="49.88315" lon="2.09714">
        <ele>117.6</ele>
        <time>2012-10-07T07:20:36Z</time>
      </trkpt>
      <trkpt lat="49.88326" lon="2.09728">
        <ele>111</ele>
        <time>2012-10-07T07:20:48Z</time>
      </trkpt>
      <trkpt lat="49.88339" lon="2.09737">
        <ele>112.5</ele>
        <time>2012-10-07T07:20:59Z</time>
      </trkpt>
      <trkpt lat="49.88351" lon="2.09749">
        <ele>108.8</ele>
        <time>2012-10-07T07:21:10Z</time>
      </trkpt>
      <trkpt lat="49.88362" lon="2.09763">
        <ele>114.1</ele>
        <time>2012-10-07T07:21:21Z</time>
      </trkpt>
      <trkpt lat="49.88372" lon="2.09778">
        <ele>113.3</ele>
        <time>2012-10-07T07:21:32Z</time>
      </trkpt>
      <trkpt lat="49.88382" lon="2.09793">
        <ele>114.4</ele>
        <time>2012-10-07T07:21:42Z</time>
      </trkpt>
      <trkpt lat="49.88394" lon="2.09806">
        <ele>112.8</ele>
        <time>2012-10-07T07:21:52Z</time>
      </trkpt>
      <trkpt lat="49.88404" lon="2.09819">
        <ele>112.7</ele>
        <time>2012-10-07T07:22:02Z</time>
      </trkpt>
      <trkpt lat="49.88416" lon="2.0983">
        <ele>112.5</ele>
        <time>2012-10-07T07:22:14Z</time>
      </trkpt>
      <trkpt lat="49.88426" lon="2.09846">
        <ele>109.6</ele>
        <time>2012-10-07T07:22:24Z</time>
      </trkpt>
      <trkpt lat="49.88437" lon="2.0986">
        <ele>110.3</ele>
        <time>2012-10-07T07:22:34Z</time>
      </trkpt>
      <trkpt lat="49.88447" lon="2.09876">
        <ele>112</ele>
        <time>2012-10-07T07:22:45Z</time>
      </trkpt>
      <trkpt lat="49.88458" lon="2.09891">
        <ele>111.5</ele>
        <time>2012-10-07T07:22:57Z</time>
      </trkpt>
      <trkpt lat="49.88468" lon="2.09907">
        <ele>110.4</ele>
        <time>2012-10-07T07:23:08Z</time>
      </trkpt>
      <trkpt lat="49.88477" lon="2.09924">
        <ele>108.7</ele>
        <time>2012-10-07T07:23:20Z</time>
      </trkpt>
      <trkpt lat="49.88486" lon="2.0994">
        <ele>111.2</ele>
        <time>2012-10-07T07:23:30Z</time>
      </trkpt>
      <trkpt lat="49.88497" lon="2.09954">
        <ele>110.1</ele>
        <time>2012-10-07T07:23:41Z</time>
      </trkpt>
      <trkpt lat="49.88507" lon="2.0997">
        <ele>108.9</ele>
        <time>2012-10-07T07:23:50Z</time>
      </trkpt>
      <trkpt lat="49.88518" lon="2.09984">
        <ele>107.4</ele>
        <time>2012-10-07T07:24:02Z</time>
      </trkpt>
      <trkpt lat="49.88527" lon="2.09998">
        <ele>108.8</ele>
        <time>2012-10-07T07:24:12Z</time>
      </trkpt>
      <trkpt lat="49.88529" lon="2.10019">
        <ele>115</ele>
        <time>2012-10-07T07:24:25Z</time>
      </trkpt>
      <trkpt lat="49.88519" lon="2.10036">
        <ele>111.3</ele>
        <time>2012-10-07T07:24:36Z</time>
      </trkpt>
      <trkpt lat="49.88511" lon="2.10053">
        <ele>108.6</ele>
        <time>2012-10-07T07:24:47Z</time>
      </trkpt>
      <trkpt lat="49.88501" lon="2.10068">
        <ele>110.1</ele>
        <time>2012-10-07T07:24:57Z</time>
      </trkpt>
      <trkpt lat="49.88491" lon="2.10083">
        <ele>111.1</ele>
        <time>2012-10-07T07:25:07Z</time>
      </trkpt>
      <trkpt lat="49.88482" lon="2.10098">
        <ele>108.4</ele>
        <time>2012-10-07T07:25:18Z</time>
      </trkpt>
      <trkpt lat="49.8847" lon="2.10115">
        <ele>107.1</ele>
        <time>2012-10-07T07:25:29Z</time>
      </trkpt>
      <trkpt lat="49.8846" lon="2.10131">
        <ele>111</ele>
        <time>2012-10-07T07:25:41Z</time>
      </trkpt>
      <trkpt lat="49.8845" lon="2.10145">
        <ele>112</ele>
        <time>2012-10-07T07:25:51Z</time>
      </trkpt>
      <trkpt lat="49.88441" lon="2.10164">
        <ele>113.1</ele>
        <time>2012-10-07T07:26:02Z</time>
      </trkpt>
      <trkpt lat="49.8843" lon="2.1018">
        <ele>114</ele>
        <time>2012-10-07T07:26:11Z</time>
      </trkpt>
      <trkpt lat="49.88424" lon="2.10198">
        <ele>112.7</ele>
        <time>2012-10-07T07:26:23Z</time>
      </trkpt>
      <trkpt lat="49.88429" lon="2.10221">
        <ele>111.6</ele>
        <time>2012-10-07T07:26:33Z</time>
      </trkpt>
      <trkpt lat="49.88441" lon="2.10242">
        <ele>110.2</ele>
        <time>2012-10-07T07:26:46Z</time>
      </trkpt>
      <trkpt lat="49.88448" lon="2.1026">
        <ele>109.3</ele>
        <time>2012-10-07T07:26:57Z</time>
      </trkpt>
      <trkpt lat="49.88458" lon="2.1028">
        <ele>111.1</ele>
        <time>2012-10-07T07:27:10Z</time>
      </trkpt>
      <trkpt lat="49.88468" lon="2.10297">
        <ele>111.8</ele>
        <time>2012-10-07T07:27:21Z</time>
      </trkpt>
      <trkpt lat="49.88477" lon="2.10315">
        <ele>110.1</ele>
        <time>2012-10-07T07:27:32Z</time>
      </trkpt>
      <trkpt lat="49.88486" lon="2.10333">
        <ele>110.8</ele>
        <time>2012-10-07T07:27:44Z</time>
      </trkpt>
      <trkpt lat="49.88496" lon="2.10351">
        <ele>109.4</ele>
        <time>2012-10-07T07:27:54Z</time>
      </trkpt>
      <trkpt lat="49.88505" lon="2.1037">
        <ele>107.7</ele>
        <time>2012-10-07T07:28:05Z</time>
      </trkpt>
      <trkpt lat="49.88513" lon="2.10388">
        <ele>105.4</ele>
        <time>2012-10-07T07:28:16Z</time>
      </trkpt>
      <trkpt lat="49.88522" lon="2.10406">
        <ele>102.4</ele>
        <time>2012-10-07T07:28:28Z</time>
      </trkpt>
      <trkpt lat="49.88531" lon="2.10425">
        <ele>105.1</ele>
        <time>2012-10-07T07:28:38Z</time>
      </trkpt>
      <trkpt lat="49.88539" lon="2.10441">
        <ele>104.4</ele>
        <time>2012-10-07T07:28:48Z</time>
      </trkpt>
      <trkpt lat="49.88548" lon="2.10458">
        <ele>103.3</ele>
        <time>2012-10-07T07:28:58Z</time>
      </trkpt>
      <trkpt lat="49.88557" lon="2.10475">
        <ele>102.3</ele>
        <time>2012-10-07T07:29:08Z</time>
      </trkpt>
      <trkpt lat="49.88566" lon="2.10493">
        <ele>101.1</ele>
        <time>2012-10-07T07:29:19Z</time>
      </trkpt>
      <trkpt lat="49.88575" lon="2.10508">
        <ele>105.6</ele>
        <time>2012-10-07T07:29:29Z</time>
      </trkpt>
      <trkpt lat="49.88585" lon="2.10526">
        <ele>103.8</ele>
        <time>2012-10-07T07:29:40Z</time>
      </trkpt>
      <trkpt lat="49.88593" lon="2.10544">
        <ele>104</ele>
        <time>2012-10-07T07:29:52Z</time>
      </trkpt>
      <trkpt lat="49.88602" lon="2.10562">
        <ele>104</ele>
        <time>2012-10-07T07:30:03Z</time>
      </trkpt>
      <trkpt lat="49.8861" lon="2.10582">
        <ele>104</ele>
        <time>2012-10-07T07:30:13Z</time>
      </trkpt>
      <trkpt lat="49.88619" lon="2.10599">
        <ele>104.7</ele>
        <time>2012-10-07T07:30:25Z</time>
      </trkpt>
      <trkpt lat="49.88635" lon="2.10628">
        <ele>105.6</ele>
        <time>2012-10-07T07:30:54Z</time>
      </trkpt>
      <trkpt lat="49.88635" lon="2.10628">
        <ele>105.6</ele>
        <time>2012-10-07T07:35:11Z</time>
      </trkpt>
      <trkpt lat="49.88641" lon="2.10641">
        <ele>106.2</ele>
        <time>2012-10-07T07:35:13Z</time>
      </trkpt>
      <trkpt lat="49.88649" lon="2.10659">
        <ele>107.3</ele>
        <time>2012-10-07T07:35:25Z</time>
      </trkpt>
      <trkpt lat="49.88655" lon="2.10678">
        <ele>108</ele>
        <time>2012-10-07T07:35:36Z</time>
      </trkpt>
      <trkpt lat="49.88661" lon="2.10698">
        <ele>106.3</ele>
        <time>2012-10-07T07:35:48Z</time>
      </trkpt>
      <trkpt lat="49.88668" lon="2.10718">
        <ele>102.9</ele>
        <time>2012-10-07T07:36:00Z</time>
      </trkpt>
      <trkpt lat="49.88676" lon="2.10737">
        <ele>100.7</ele>
        <time>2012-10-07T07:36:10Z</time>
      </trkpt>
      <trkpt lat="49.88683" lon="2.10754">
        <ele>98.3</ele>
        <time>2012-10-07T07:36:21Z</time>
      </trkpt>
      <trkpt lat="49.88691" lon="2.10775">
        <ele>102.1</ele>
        <time>2012-10-07T07:36:36Z</time>
      </trkpt>
      <trkpt lat="49.88697" lon="2.10796">
        <ele>103.9</ele>
        <time>2012-10-07T07:36:46Z</time>
      </trkpt>
      <trkpt lat="49.88702" lon="2.10816">
        <ele>105.4</ele>
        <time>2012-10-07T07:36:56Z</time>
      </trkpt>
      <trkpt lat="49.88707" lon="2.10838">
        <ele>104.2</ele>
        <time>2012-10-07T07:37:08Z</time>
      </trkpt>
      <trkpt lat="49.88714" lon="2.10857">
        <ele>101.8</ele>
        <time>2012-10-07T07:37:18Z</time>
      </trkpt>
      <trkpt lat="49.8872" lon="2.10878">
        <ele>101.2</ele>
        <time>2012-10-07T07:37:29Z</time>
      </trkpt>
      <trkpt lat="49.88725" lon="2.10898">
        <ele>100.6</ele>
        <time>2012-10-07T07:37:40Z</time>
      </trkpt>
      <trkpt lat="49.88731" lon="2.10917">
        <ele>100.1</ele>
        <time>2012-10-07T07:37:50Z</time>
      </trkpt>
      <trkpt lat="49.88738" lon="2.10935">
        <ele>99.7</ele>
        <time>2012-10-07T07:37:59Z</time>
      </trkpt>
      <trkpt lat="49.88743" lon="2.10955">
        <ele>99.1</ele>
        <time>2012-10-07T07:38:10Z</time>
      </trkpt>
      <trkpt lat="49.88748" lon="2.10976">
        <ele>98.7</ele>
        <time>2012-10-07T07:38:19Z</time>
      </trkpt>
      <trkpt lat="49.88754" lon="2.10996">
        <ele>96.7</ele>
        <time>2012-10-07T07:38:31Z</time>
      </trkpt>
      <trkpt lat="49.88759" lon="2.11017">
        <ele>94.7</ele>
        <time>2012-10-07T07:38:42Z</time>
      </trkpt>
      <trkpt lat="49.88765" lon="2.11037">
        <ele>96.6</ele>
        <time>2012-10-07T07:38:52Z</time>
      </trkpt>
      <trkpt lat="49.88771" lon="2.11057">
        <ele>96.8</ele>
        <time>2012-10-07T07:39:03Z</time>
      </trkpt>
      <trkpt lat="49.88778" lon="2.11075">
        <ele>95.1</ele>
        <time>2012-10-07T07:39:14Z</time>
      </trkpt>
      <trkpt lat="49.88785" lon="2.11099">
        <ele>93.6</ele>
        <time>2012-10-07T07:39:25Z</time>
      </trkpt>
      <trkpt lat="49.88793" lon="2.11117">
        <ele>92.5</ele>
        <time>2012-10-07T07:39:37Z</time>
      </trkpt>
      <trkpt lat="49.88799" lon="2.11136">
        <ele>91.4</ele>
        <time>2012-10-07T07:39:49Z</time>
      </trkpt>
      <trkpt lat="49.88809" lon="2.11155">
        <ele>90.4</ele>
        <time>2012-10-07T07:40:00Z</time>
      </trkpt>
      <trkpt lat="49.88819" lon="2.11171">
        <ele>89.4</ele>
        <time>2012-10-07T07:40:10Z</time>
      </trkpt>
      <trkpt lat="49.88827" lon="2.11188">
        <ele>88.5</ele>
        <time>2012-10-07T07:40:20Z</time>
      </trkpt>
      <trkpt lat="49.88836" lon="2.11204">
        <ele>90.5</ele>
        <time>2012-10-07T07:40:31Z</time>
      </trkpt>
      <trkpt lat="49.88845" lon="2.11222">
        <ele>88.9</ele>
        <time>2012-10-07T07:40:42Z</time>
      </trkpt>
      <trkpt lat="49.88855" lon="2.1124">
        <ele>88</ele>
        <time>2012-10-07T07:40:53Z</time>
      </trkpt>
      <trkpt lat="49.88863" lon="2.11258">
        <ele>88</ele>
        <time>2012-10-07T07:41:03Z</time>
      </trkpt>
      <trkpt lat="49.88874" lon="2.11274">
        <ele>89.8</ele>
        <time>2012-10-07T07:41:15Z</time>
      </trkpt>
      <trkpt lat="49.88882" lon="2.11292">
        <ele>87.9</ele>
        <time>2012-10-07T07:41:27Z</time>
      </trkpt>
      <trkpt lat="49.8889" lon="2.11309">
        <ele>86.1</ele>
        <time>2012-10-07T07:41:39Z</time>
      </trkpt>
      <trkpt lat="49.88899" lon="2.11326">
        <ele>87.1</ele>
        <time>2012-10-07T07:41:49Z</time>
      </trkpt>
      <trkpt lat="49.88907" lon="2.11344">
        <ele>90.3</ele>
        <time>2012-10-07T07:42:00Z</time>
      </trkpt>
      <trkpt lat="49.88914" lon="2.11362">
        <ele>87</ele>
        <time>2012-10-07T07:42:09Z</time>
      </trkpt>
      <trkpt lat="49.88923" lon="2.11379">
        <ele>89.1</ele>
        <time>2012-10-07T07:42:19Z</time>
      </trkpt>
      <trkpt lat="49.88932" lon="2.11398">
        <ele>88.4</ele>
        <time>2012-10-07T07:42:30Z</time>
      </trkpt>
      <trkpt lat="49.88941" lon="2.11416">
        <ele>87.8</ele>
        <time>2012-10-07T07:42:40Z</time>
      </trkpt>
      <trkpt lat="49.88951" lon="2.11432">
        <ele>87.2</ele>
        <time>2012-10-07T07:42:51Z</time>
      </trkpt>
      <trkpt lat="49.8896" lon="2.11448">
        <ele>86.6</ele>
        <time>2012-10-07T07:43:01Z</time>
      </trkpt>
      <trkpt lat="49.88973" lon="2.11457">
        <ele>88.8</ele>
        <time>2012-10-07T07:43:14Z</time>
      </trkpt>
      <trkpt lat="49.88987" lon="2.11459">
        <ele>88</ele>
        <time>2012-10-07T07:43:24Z</time>
      </trkpt>
      <trkpt lat="49.89002" lon="2.1146">
        <ele>85.2</ele>
        <time>2012-10-07T07:43:35Z</time>
      </trkpt>
      <trkpt lat="49.89016" lon="2.11462">
        <ele>84.7</ele>
        <time>2012-10-07T07:43:46Z</time>
      </trkpt>
      <trkpt lat="49.8903" lon="2.11461">
        <ele>84.3</ele>
        <time>2012-10-07T07:43:55Z</time>
      </trkpt>
      <trkpt lat="49.89044" lon="2.11455">
        <ele>83.7</ele>
        <time>2012-10-07T07:44:08Z</time>
      </trkpt>
      <trkpt lat="49.89059" lon="2.11452">
        <ele>83.2</ele>
        <time>2012-10-07T07:44:19Z</time>
      </trkpt>
      <trkpt lat="49.89073" lon="2.11451">
        <ele>82.6</ele>
        <time>2012-10-07T07:44:32Z</time>
      </trkpt>
      <trkpt lat="49.89086" lon="2.11447">
        <ele>80</ele>
        <time>2012-10-07T07:44:50Z</time>
      </trkpt>
      <trkpt lat="49.89114" lon="2.1142">
        <ele>81.3</ele>
        <time>2012-10-07T07:45:26Z</time>
      </trkpt>
      <trkpt lat="49.89114" lon="2.1142">
        <ele>81.3</ele>
        <time>2012-10-07T07:46:59Z</time>
      </trkpt>
      <trkpt lat="49.8913" lon="2.11404">
        <ele>80.5</ele>
        <time>2012-10-07T07:47:00Z</time>
      </trkpt>
      <trkpt lat="49.89142" lon="2.11393">
        <ele>79.3</ele>
        <time>2012-10-07T07:47:11Z</time>
      </trkpt>
      <trkpt lat="49.89154" lon="2.1138">
        <ele>76.3</ele>
        <time>2012-10-07T07:47:24Z</time>
      </trkpt>
      <trkpt lat="49.89167" lon="2.1137">
        <ele>73.7</ele>
        <time>2012-10-07T07:47:35Z</time>
      </trkpt>
      <trkpt lat="49.8918" lon="2.11358">
        <ele>75.8</ele>
        <time>2012-10-07T07:47:47Z</time>
      </trkpt>
      <trkpt lat="49.89193" lon="2.11349">
        <ele>76.5</ele>
        <time>2012-10-07T07:47:58Z</time>
      </trkpt>
      <trkpt lat="49.89206" lon="2.1134">
        <ele>74.9</ele>
        <time>2012-10-07T07:48:09Z</time>
      </trkpt>
      <trkpt lat="49.89218" lon="2.11328">
        <ele>76.3</ele>
        <time>2012-10-07T07:48:19Z</time>
      </trkpt>
      <trkpt lat="49.89231" lon="2.11317">
        <ele>75.5</ele>
        <time>2012-10-07T07:48:31Z</time>
      </trkpt>
      <trkpt lat="49.89243" lon="2.11305">
        <ele>72.2</ele>
        <time>2012-10-07T07:48:45Z</time>
      </trkpt>
      <trkpt lat="49.89256" lon="2.11299">
        <ele>73.4</ele>
        <time>2012-10-07T07:48:55Z</time>
      </trkpt>
      <trkpt lat="49.89271" lon="2.11295">
        <ele>76.6</ele>
        <time>2012-10-07T07:49:06Z</time>
      </trkpt>
      <trkpt lat="49.89284" lon="2.11289">
        <ele>68.1</ele>
        <time>2012-10-07T07:49:22Z</time>
      </trkpt>
      <trkpt lat="49.89297" lon="2.11279">
        <ele>67.9</ele>
        <time>2012-10-07T07:49:32Z</time>
      </trkpt>
      <trkpt lat="49.89311" lon="2.11271">
        <ele>72.7</ele>
        <time>2012-10-07T07:49:42Z</time>
      </trkpt>
      <trkpt lat="49.89325" lon="2.11262">
        <ele>71.2</ele>
        <time>2012-10-07T07:49:53Z</time>
      </trkpt>
      <trkpt lat="49.89337" lon="2.11252">
        <ele>72.6</ele>
        <time>2012-10-07T07:50:03Z</time>
      </trkpt>
      <trkpt lat="49.89346" lon="2.11235">
        <ele>72.7</ele>
        <time>2012-10-07T07:50:14Z</time>
      </trkpt>
      <trkpt lat="49.89358" lon="2.11224">
        <ele>73.2</ele>
        <time>2012-10-07T07:50:24Z</time>
      </trkpt>
      <trkpt lat="49.8937" lon="2.11213">
        <ele>75.1</ele>
        <time>2012-10-07T07:50:37Z</time>
      </trkpt>
      <trkpt lat="49.89382" lon="2.11202">
        <ele>76</ele>
        <time>2012-10-07T07:50:47Z</time>
      </trkpt>
      <trkpt lat="49.89395" lon="2.11192">
        <ele>74.2</ele>
        <time>2012-10-07T07:50:57Z</time>
      </trkpt>
      <trkpt lat="49.89408" lon="2.11186">
        <ele>72.4</ele>
        <time>2012-10-07T07:51:08Z</time>
      </trkpt>
      <trkpt lat="49.89423" lon="2.11171">
        <ele>70.5</ele>
        <time>2012-10-07T07:51:19Z</time>
      </trkpt>
      <trkpt lat="49.89435" lon="2.11159">
        <ele>74.9</ele>
        <time>2012-10-07T07:51:31Z</time>
      </trkpt>
      <trkpt lat="49.89448" lon="2.11148">
        <ele>73</ele>
        <time>2012-10-07T07:51:43Z</time>
      </trkpt>
      <trkpt lat="49.89461" lon="2.11139">
        <ele>74.1</ele>
        <time>2012-10-07T07:51:54Z</time>
      </trkpt>
      <trkpt lat="49.89474" lon="2.11129">
        <ele>75.1</ele>
        <time>2012-10-07T07:52:04Z</time>
      </trkpt>
      <trkpt lat="49.89486" lon="2.11119">
        <ele>76.3</ele>
        <time>2012-10-07T07:52:14Z</time>
      </trkpt>
      <trkpt lat="49.89499" lon="2.1111">
        <ele>80.4</ele>
        <time>2012-10-07T07:52:25Z</time>
      </trkpt>
      <trkpt lat="49.89512" lon="2.11104">
        <ele>84.3</ele>
        <time>2012-10-07T07:52:36Z</time>
      </trkpt>
      <trkpt lat="49.89526" lon="2.11099">
        <ele>84.2</ele>
        <time>2012-10-07T07:52:46Z</time>
      </trkpt>
      <trkpt lat="49.89539" lon="2.11092">
        <ele>82.8</ele>
        <time>2012-10-07T07:52:56Z</time>
      </trkpt>
      <trkpt lat="49.89553" lon="2.11086">
        <ele>83.4</ele>
        <time>2012-10-07T07:53:07Z</time>
      </trkpt>
      <trkpt lat="49.89566" lon="2.11077">
        <ele>84.1</ele>
        <time>2012-10-07T07:53:19Z</time>
      </trkpt>
      <trkpt lat="49.89579" lon="2.11071">
        <ele>81.5</ele>
        <time>2012-10-07T07:53:30Z</time>
      </trkpt>
      <trkpt lat="49.89591" lon="2.1106">
        <ele>78.1</ele>
        <time>2012-10-07T07:53:40Z</time>
      </trkpt>
      <trkpt lat="49.8959" lon="2.11039">
        <ele>82.5</ele>
        <time>2012-10-07T07:53:53Z</time>
      </trkpt>
      <trkpt lat="49.89584" lon="2.11019">
        <ele>85.3</ele>
        <time>2012-10-07T07:54:01Z</time>
      </trkpt>
      <trkpt lat="49.89575" lon="2.11002">
        <ele>89.9</ele>
        <time>2012-10-07T07:54:12Z</time>
      </trkpt>
      <trkpt lat="49.89564" lon="2.10981">
        <ele>94.8</ele>
        <time>2012-10-07T07:54:21Z</time>
      </trkpt>
      <trkpt lat="49.89555" lon="2.10965">
        <ele>93.4</ele>
        <time>2012-10-07T07:54:34Z</time>
      </trkpt>
      <trkpt lat="49.89547" lon="2.10946">
        <ele>90.5</ele>
        <time>2012-10-07T07:54:46Z</time>
      </trkpt>
      <trkpt lat="49.89543" lon="2.10925">
        <ele>90</ele>
        <time>2012-10-07T07:54:57Z</time>
      </trkpt>
      <trkpt lat="49.89536" lon="2.10903">
        <ele>91.3</ele>
        <time>2012-10-07T07:55:08Z</time>
      </trkpt>
      <trkpt lat="49.89531" lon="2.10881">
        <ele>92.8</ele>
        <time>2012-10-07T07:55:21Z</time>
      </trkpt>
      <trkpt lat="49.89525" lon="2.10861">
        <ele>89.3</ele>
        <time>2012-10-07T07:55:30Z</time>
      </trkpt>
      <trkpt lat="49.89517" lon="2.10843">
        <ele>92.6</ele>
        <time>2012-10-07T07:55:43Z</time>
      </trkpt>
      <trkpt lat="49.89514" lon="2.10814">
        <ele>87.9</ele>
        <time>2012-10-07T07:55:54Z</time>
      </trkpt>
      <trkpt lat="49.8951" lon="2.10794">
        <ele>92.2</ele>
        <time>2012-10-07T07:56:06Z</time>
      </trkpt>
      <trkpt lat="49.89507" lon="2.10767">
        <ele>93.7</ele>
        <time>2012-10-07T07:56:17Z</time>
      </trkpt>
      <trkpt lat="49.89503" lon="2.10746">
        <ele>94.9</ele>
        <time>2012-10-07T07:56:30Z</time>
      </trkpt>
      <trkpt lat="49.895" lon="2.10725">
        <ele>96.1</ele>
        <time>2012-10-07T07:56:43Z</time>
      </trkpt>
      <trkpt lat="49.89499" lon="2.10701">
        <ele>96.2</ele>
        <time>2012-10-07T07:56:54Z</time>
      </trkpt>
      <trkpt lat="49.89498" lon="2.1068">
        <ele>92.6</ele>
        <time>2012-10-07T07:57:05Z</time>
      </trkpt>
      <trkpt lat="49.89496" lon="2.10659">
        <ele>94.7</ele>
        <time>2012-10-07T07:57:17Z</time>
      </trkpt>
      <trkpt lat="49.89497" lon="2.10637">
        <ele>95</ele>
        <time>2012-10-07T07:57:27Z</time>
      </trkpt>
      <trkpt lat="49.89497" lon="2.10615">
        <ele>93.1</ele>
        <time>2012-10-07T07:57:37Z</time>
      </trkpt>
      <trkpt lat="49.89496" lon="2.10593">
        <ele>92.3</ele>
        <time>2012-10-07T07:57:47Z</time>
      </trkpt>
      <trkpt lat="49.89497" lon="2.10571">
        <ele>96</ele>
        <time>2012-10-07T07:57:58Z</time>
      </trkpt>
      <trkpt lat="49.89499" lon="2.10549">
        <ele>95</ele>
        <time>2012-10-07T07:58:09Z</time>
      </trkpt>
      <trkpt lat="49.89499" lon="2.10527">
        <ele>94.1</ele>
        <time>2012-10-07T07:58:20Z</time>
      </trkpt>
      <trkpt lat="49.89501" lon="2.10506">
        <ele>93.2</ele>
        <time>2012-10-07T07:58:30Z</time>
      </trkpt>
      <trkpt lat="49.89503" lon="2.10484">
        <ele>92.3</ele>
        <time>2012-10-07T07:58:41Z</time>
      </trkpt>
      <trkpt lat="49.89509" lon="2.10464">
        <ele>92.6</ele>
        <time>2012-10-07T07:58:51Z</time>
      </trkpt>
      <trkpt lat="49.89514" lon="2.10443">
        <ele>93.8</ele>
        <time>2012-10-07T07:59:01Z</time>
      </trkpt>
      <trkpt lat="49.89521" lon="2.10424">
        <ele>95</ele>
        <time>2012-10-07T07:59:11Z</time>
      </trkpt>
      <trkpt lat="49.89527" lon="2.10406">
        <ele>98</ele>
        <time>2012-10-07T07:59:21Z</time>
      </trkpt>
      <trkpt lat="49.89532" lon="2.10385">
        <ele>96.6</ele>
        <time>2012-10-07T07:59:31Z</time>
      </trkpt>
      <trkpt lat="49.89535" lon="2.10364">
        <ele>93.4</ele>
        <time>2012-10-07T07:59:40Z</time>
      </trkpt>
      <trkpt lat="49.89534" lon="2.10343">
        <ele>90.1</ele>
        <time>2012-10-07T07:59:51Z</time>
      </trkpt>
      <trkpt lat="49.89532" lon="2.1032">
        <ele>87.7</ele>
        <time>2012-10-07T08:00:02Z</time>
      </trkpt>
      <trkpt lat="49.89533" lon="2.10298">
        <ele>87.6</ele>
        <time>2012-10-07T08:00:12Z</time>
      </trkpt>
      <trkpt lat="49.89533" lon="2.10275">
        <ele>90.8</ele>
        <time>2012-10-07T08:00:21Z</time>
      </trkpt>
      <trkpt lat="49.89535" lon="2.10252">
        <ele>95.7</ele>
        <time>2012-10-07T08:00:32Z</time>
      </trkpt>
      <trkpt lat="49.89536" lon="2.10229">
        <ele>99.6</ele>
        <time>2012-10-07T08:00:43Z</time>
      </trkpt>
      <trkpt lat="49.89536" lon="2.10208">
        <ele>97.9</ele>
        <time>2012-10-07T08:00:52Z</time>
      </trkpt>
      <trkpt lat="49.89537" lon="2.10185">
        <ele>96.6</ele>
        <time>2012-10-07T08:01:02Z</time>
      </trkpt>
      <trkpt lat="49.8954" lon="2.10162">
        <ele>96.7</ele>
        <time>2012-10-07T08:01:12Z</time>
      </trkpt>
      <trkpt lat="49.89544" lon="2.10142">
        <ele>96.7</ele>
        <time>2012-10-07T08:01:23Z</time>
      </trkpt>
      <trkpt lat="49.8955" lon="2.10116">
        <ele>95.8</ele>
        <time>2012-10-07T08:01:33Z</time>
      </trkpt>
      <trkpt lat="49.89551" lon="2.10095">
        <ele>94.7</ele>
        <time>2012-10-07T08:01:45Z</time>
      </trkpt>
      <trkpt lat="49.8955" lon="2.10073">
        <ele>94.2</ele>
        <time>2012-10-07T08:01:54Z</time>
      </trkpt>
      <trkpt lat="49.89548" lon="2.10052">
        <ele>96.7</ele>
        <time>2012-10-07T08:02:03Z</time>
      </trkpt>
      <trkpt lat="49.89547" lon="2.10031">
        <ele>98.8</ele>
        <time>2012-10-07T08:02:13Z</time>
      </trkpt>
      <trkpt lat="49.89544" lon="2.10009">
        <ele>99.6</ele>
        <time>2012-10-07T08:02:24Z</time>
      </trkpt>
      <trkpt lat="49.89543" lon="2.09986">
        <ele>100.3</ele>
        <time>2012-10-07T08:02:35Z</time>
      </trkpt>
      <trkpt lat="49.89541" lon="2.09965">
        <ele>101</ele>
        <time>2012-10-07T08:02:47Z</time>
      </trkpt>
      <trkpt lat="49.89537" lon="2.09944">
        <ele>101.6</ele>
        <time>2012-10-07T08:02:56Z</time>
      </trkpt>
      <trkpt lat="49.89535" lon="2.09922">
        <ele>104.8</ele>
        <time>2012-10-07T08:03:07Z</time>
      </trkpt>
      <trkpt lat="49.89536" lon="2.099">
        <ele>100</ele>
        <time>2012-10-07T08:03:17Z</time>
      </trkpt>
      <trkpt lat="49.89533" lon="2.09878">
        <ele>102.2</ele>
        <time>2012-10-07T08:03:28Z</time>
      </trkpt>
      <trkpt lat="49.89528" lon="2.09858">
        <ele>100.3</ele>
        <time>2012-10-07T08:03:38Z</time>
      </trkpt>
      <trkpt lat="49.89527" lon="2.09837">
        <ele>96.9</ele>
        <time>2012-10-07T08:03:49Z</time>
      </trkpt>
      <trkpt lat="49.89525" lon="2.09816">
        <ele>102.8</ele>
        <time>2012-10-07T08:04:00Z</time>
      </trkpt>
      <trkpt lat="49.89524" lon="2.09793">
        <ele>104.3</ele>
        <time>2012-10-07T08:04:11Z</time>
      </trkpt>
      <trkpt lat="49.89525" lon="2.09772">
        <ele>105.4</ele>
        <time>2012-10-07T08:04:20Z</time>
      </trkpt>
      <trkpt lat="49.89523" lon="2.0975">
        <ele>106.9</ele>
        <time>2012-10-07T08:04:32Z</time>
      </trkpt>
      <trkpt lat="49.89522" lon="2.09727">
        <ele>107.5</ele>
        <time>2012-10-07T08:04:42Z</time>
      </trkpt>
      <trkpt lat="49.89521" lon="2.09703">
        <ele>108.1</ele>
        <time>2012-10-07T08:04:53Z</time>
      </trkpt>
      <trkpt lat="49.89517" lon="2.09681">
        <ele>110</ele>
        <time>2012-10-07T08:05:03Z</time>
      </trkpt>
      <trkpt lat="49.89517" lon="2.09658">
        <ele>112.9</ele>
        <time>2012-10-07T08:05:12Z</time>
      </trkpt>
      <trkpt lat="49.89513" lon="2.09637">
        <ele>113.2</ele>
        <time>2012-10-07T08:05:24Z</time>
      </trkpt>
      <trkpt lat="49.8951" lon="2.09616">
        <ele>114.3</ele>
        <time>2012-10-07T08:05:35Z</time>
      </trkpt>
      <trkpt lat="49.89509" lon="2.09593">
        <ele>115.7</ele>
        <time>2012-10-07T08:05:46Z</time>
      </trkpt>
      <trkpt lat="49.8951" lon="2.09571">
        <ele>117.1</ele>
        <time>2012-10-07T08:05:56Z</time>
      </trkpt>
      <trkpt lat="49.89513" lon="2.0955">
        <ele>115.5</ele>
        <time>2012-10-07T08:06:07Z</time>
      </trkpt>
      <trkpt lat="49.89515" lon="2.09529">
        <ele>114</ele>
        <time>2012-10-07T08:06:16Z</time>
      </trkpt>
      <trkpt lat="49.89519" lon="2.09507">
        <ele>112.2</ele>
        <time>2012-10-07T08:06:27Z</time>
      </trkpt>
      <trkpt lat="49.89522" lon="2.09484">
        <ele>111.8</ele>
        <time>2012-10-07T08:06:38Z</time>
      </trkpt>
      <trkpt lat="49.89525" lon="2.09462">
        <ele>112.6</ele>
        <time>2012-10-07T08:06:48Z</time>
      </trkpt>
      <trkpt lat="49.89529" lon="2.0944">
        <ele>113.4</ele>
        <time>2012-10-07T08:06:59Z</time>
      </trkpt>
      <trkpt lat="49.89526" lon="2.09419">
        <ele>114.3</ele>
        <time>2012-10-07T08:07:10Z</time>
      </trkpt>
      <trkpt lat="49.89513" lon="2.09411">
        <ele>115.2</ele>
        <time>2012-10-07T08:07:21Z</time>
      </trkpt>
      <trkpt lat="49.895" lon="2.09406">
        <ele>114</ele>
        <time>2012-10-07T08:07:31Z</time>
      </trkpt>
      <trkpt lat="49.89487" lon="2.09399">
        <ele>112.6</ele>
        <time>2012-10-07T08:07:41Z</time>
      </trkpt>
      <trkpt lat="49.89474" lon="2.09389">
        <ele>111.2</ele>
        <time>2012-10-07T08:07:51Z</time>
      </trkpt>
      <trkpt lat="49.89464" lon="2.09374">
        <ele>109.7</ele>
        <time>2012-10-07T08:08:01Z</time>
      </trkpt>
      <trkpt lat="49.89454" lon="2.09357">
        <ele>109.2</ele>
        <time>2012-10-07T08:08:11Z</time>
      </trkpt>
      <trkpt lat="49.89443" lon="2.09343">
        <ele>110.9</ele>
        <time>2012-10-07T08:08:21Z</time>
      </trkpt>
      <trkpt lat="49.89433" lon="2.09328">
        <ele>112.6</ele>
        <time>2012-10-07T08:08:31Z</time>
      </trkpt>
      <trkpt lat="49.89424" lon="2.09312">
        <ele>114.3</ele>
        <time>2012-10-07T08:08:41Z</time>
      </trkpt>
      <trkpt lat="49.89414" lon="2.09297">
        <ele>114</ele>
        <time>2012-10-07T08:08:52Z</time>
      </trkpt>
      <trkpt lat="49.89406" lon="2.09278">
        <ele>113.5</ele>
        <time>2012-10-07T08:09:02Z</time>
      </trkpt>
      <trkpt lat="49.89396" lon="2.09257">
        <ele>111.7</ele>
        <time>2012-10-07T08:09:13Z</time>
      </trkpt>
      <trkpt lat="49.89386" lon="2.09241">
        <ele>113</ele>
        <time>2012-10-07T08:09:25Z</time>
      </trkpt>
      <trkpt lat="49.89378" lon="2.09223">
        <ele>114.6</ele>
        <time>2012-10-07T08:09:36Z</time>
      </trkpt>
      <trkpt lat="49.89368" lon="2.09207">
        <ele>116</ele>
        <time>2012-10-07T08:09:46Z</time>
      </trkpt>
      <trkpt lat="49.89356" lon="2.09194">
        <ele>117.3</ele>
        <time>2012-10-07T08:09:55Z</time>
      </trkpt>
      <trkpt lat="49.89346" lon="2.09181">
        <ele>117.4</ele>
        <time>2012-10-07T08:10:05Z</time>
      </trkpt>
      <trkpt lat="49.89331" lon="2.09175">
        <ele>117</ele>
        <time>2012-10-07T08:10:15Z</time>
      </trkpt>
      <trkpt lat="49.89318" lon="2.09166">
        <ele>121.1</ele>
        <time>2012-10-07T08:10:27Z</time>
      </trkpt>
      <trkpt lat="49.89305" lon="2.09159">
        <ele>118.8</ele>
        <time>2012-10-07T08:10:38Z</time>
      </trkpt>
      <trkpt lat="49.8929" lon="2.09157">
        <ele>122.9</ele>
        <time>2012-10-07T08:10:49Z</time>
      </trkpt>
      <trkpt lat="49.89272" lon="2.09151">
        <ele>112.4</ele>
        <time>2012-10-07T08:10:58Z</time>
      </trkpt>
      <trkpt lat="49.89258" lon="2.09146">
        <ele>114.4</ele>
        <time>2012-10-07T08:11:11Z</time>
      </trkpt>
      <trkpt lat="49.89244" lon="2.09137">
        <ele>116.2</ele>
        <time>2012-10-07T08:11:23Z</time>
      </trkpt>
      <trkpt lat="49.8923" lon="2.09132">
        <ele>118.5</ele>
        <time>2012-10-07T08:11:34Z</time>
      </trkpt>
      <trkpt lat="49.89216" lon="2.09132">
        <ele>115.1</ele>
        <time>2012-10-07T08:11:42Z</time>
      </trkpt>
      <trkpt lat="49.89201" lon="2.09125">
        <ele>115</ele>
        <time>2012-10-07T08:11:56Z</time>
      </trkpt>
      <trkpt lat="49.89185" lon="2.09126">
        <ele>118.2</ele>
        <time>2012-10-07T08:12:08Z</time>
      </trkpt>
      <trkpt lat="49.89171" lon="2.09128">
        <ele>116.3</ele>
        <time>2012-10-07T08:12:16Z</time>
      </trkpt>
      <trkpt lat="49.89156" lon="2.09129">
        <ele>114.2</ele>
        <time>2012-10-07T08:12:25Z</time>
      </trkpt>
      <trkpt lat="49.89142" lon="2.09127">
        <ele>112.3</ele>
        <time>2012-10-07T08:12:35Z</time>
      </trkpt>
      <trkpt lat="49.89129" lon="2.09126">
        <ele>110.6</ele>
        <time>2012-10-07T08:12:44Z</time>
      </trkpt>
      <trkpt lat="49.89115" lon="2.0912">
        <ele>108.8</ele>
        <time>2012-10-07T08:12:54Z</time>
      </trkpt>
      <trkpt lat="49.89101" lon="2.09117">
        <ele>110.2</ele>
        <time>2012-10-07T08:13:05Z</time>
      </trkpt>
      <trkpt lat="49.89086" lon="2.09113">
        <ele>112.5</ele>
        <time>2012-10-07T08:13:17Z</time>
      </trkpt>
      <trkpt lat="49.89071" lon="2.09109">
        <ele>117</ele>
        <time>2012-10-07T08:13:27Z</time>
      </trkpt>
      <trkpt lat="49.89057" lon="2.09104">
        <ele>119.2</ele>
        <time>2012-10-07T08:13:37Z</time>
      </trkpt>
      <trkpt lat="49.89044" lon="2.091">
        <ele>120.6</ele>
        <time>2012-10-07T08:13:47Z</time>
      </trkpt>
      <trkpt lat="49.8903" lon="2.09091">
        <ele>121.1</ele>
        <time>2012-10-07T08:14:00Z</time>
      </trkpt>
      <trkpt lat="49.89016" lon="2.09086">
        <ele>118.7</ele>
        <time>2012-10-07T08:14:10Z</time>
      </trkpt>
      <trkpt lat="49.89002" lon="2.09083">
        <ele>119</ele>
        <time>2012-10-07T08:14:19Z</time>
      </trkpt>
      <trkpt lat="49.88989" lon="2.09072">
        <ele>120.9</ele>
        <time>2012-10-07T08:14:31Z</time>
      </trkpt>
      <trkpt lat="49.88975" lon="2.09063">
        <ele>119.8</ele>
        <time>2012-10-07T08:14:40Z</time>
      </trkpt>
      <trkpt lat="49.8896" lon="2.09054">
        <ele>118.2</ele>
        <time>2012-10-07T08:14:53Z</time>
      </trkpt>
      <trkpt lat="49.88947" lon="2.09041">
        <ele>116.6</ele>
        <time>2012-10-07T08:15:06Z</time>
      </trkpt>
      <trkpt lat="49.88935" lon="2.09029">
        <ele>117.5</ele>
        <time>2012-10-07T08:15:16Z</time>
      </trkpt>
      <trkpt lat="49.88924" lon="2.09015">
        <ele>118.6</ele>
        <time>2012-10-07T08:15:27Z</time>
      </trkpt>
      <trkpt lat="49.88912" lon="2.09003">
        <ele>119.1</ele>
        <time>2012-10-07T08:15:38Z</time>
      </trkpt>
      <trkpt lat="49.88899" lon="2.08991">
        <ele>118.4</ele>
        <time>2012-10-07T08:15:48Z</time>
      </trkpt>
      <trkpt lat="49.88887" lon="2.08981">
        <ele>120.4</ele>
        <time>2012-10-07T08:15:58Z</time>
      </trkpt>
      <trkpt lat="49.88879" lon="2.08965">
        <ele>118.6</ele>
        <time>2012-10-07T08:16:08Z</time>
      </trkpt>
      <trkpt lat="49.8887" lon="2.08946">
        <ele>112.5</ele>
        <time>2012-10-07T08:16:19Z</time>
      </trkpt>
      <trkpt lat="49.88857" lon="2.08939">
        <ele>116.1</ele>
        <time>2012-10-07T08:16:28Z</time>
      </trkpt>
      <trkpt lat="49.88845" lon="2.08925">
        <ele>118.9</ele>
        <time>2012-10-07T08:16:39Z</time>
      </trkpt>
      <trkpt lat="49.88836" lon="2.08914">
        <ele>118.6</ele>
        <time>2012-10-07T08:16:47Z</time>
      </trkpt>
      <trkpt lat="49.88834" lon="2.08901">
        <ele>117.4</ele>
        <time>2012-10-07T08:16:54Z</time>
      </trkpt>
      <trkpt lat="49.8882" lon="2.08903">
        <ele>117.8</ele>
        <time>2012-10-07T08:16:59Z</time>
      </trkpt>
      <trkpt lat="49.88815" lon="2.089">
        <ele>115.1</ele>
        <time>2012-10-07T08:17:02Z</time>
      </trkpt>
      <trkpt lat="49.88816" lon="2.08889">
        <ele>113.5</ele>
        <time>2012-10-07T08:17:07Z</time>
      </trkpt>
      <trkpt lat="49.88803" lon="2.08882">
        <ele>115.8</ele>
        <time>2012-10-07T08:17:14Z</time>
      </trkpt>
      <trkpt lat="49.88789" lon="2.08876">
        <ele>118.2</ele>
        <time>2012-10-07T08:17:24Z</time>
      </trkpt>
      <trkpt lat="49.88774" lon="2.08869">
        <ele>115.5</ele>
        <time>2012-10-07T08:17:33Z</time>
      </trkpt>
      <trkpt lat="49.88764" lon="2.08854">
        <ele>115.1</ele>
        <time>2012-10-07T08:17:46Z</time>
      </trkpt>
      <trkpt lat="49.88752" lon="2.08842">
        <ele>117.4</ele>
        <time>2012-10-07T08:17:57Z</time>
      </trkpt>
      <trkpt lat="49.88739" lon="2.08836">
        <ele>117.3</ele>
        <time>2012-10-07T08:18:06Z</time>
      </trkpt>
      <trkpt lat="49.88725" lon="2.0883">
        <ele>117.7</ele>
        <time>2012-10-07T08:18:13Z</time>
      </trkpt>
      <trkpt lat="49.88713" lon="2.08821">
        <ele>122.9</ele>
        <time>2012-10-07T08:18:23Z</time>
      </trkpt>
      <trkpt lat="49.88703" lon="2.08805">
        <ele>121.6</ele>
        <time>2012-10-07T08:18:34Z</time>
      </trkpt>
      <trkpt lat="49.88695" lon="2.08785">
        <ele>117</ele>
        <time>2012-10-07T08:18:45Z</time>
      </trkpt>
      <trkpt lat="49.88686" lon="2.08766">
        <ele>119.6</ele>
        <time>2012-10-07T08:18:56Z</time>
      </trkpt>
      <trkpt lat="49.88676" lon="2.08753">
        <ele>115.6</ele>
        <time>2012-10-07T08:19:06Z</time>
      </trkpt>
      <trkpt lat="49.88669" lon="2.08749">
        <ele>116.2</ele>
        <time>2012-10-07T08:19:11Z</time>
      </trkpt>
      <trkpt lat="49.88656" lon="2.08737">
        <ele>115.3</ele>
        <time>2012-10-07T08:19:22Z</time>
      </trkpt>
      <trkpt lat="49.88642" lon="2.08727">
        <ele>115.9</ele>
        <time>2012-10-07T08:19:33Z</time>
      </trkpt>
      <trkpt lat="49.88628" lon="2.08725">
        <ele>116.4</ele>
        <time>2012-10-07T08:19:43Z</time>
      </trkpt>
      <trkpt lat="49.88614" lon="2.08726">
        <ele>115.4</ele>
        <time>2012-10-07T08:19:53Z</time>
      </trkpt>
      <trkpt lat="49.88601" lon="2.08723">
        <ele>119.4</ele>
        <time>2012-10-07T08:20:05Z</time>
      </trkpt>
      <trkpt lat="49.88587" lon="2.08719">
        <ele>112.9</ele>
        <time>2012-10-07T08:20:19Z</time>
      </trkpt>
      <trkpt lat="49.88574" lon="2.08715">
        <ele>119.9</ele>
        <time>2012-10-07T08:20:30Z</time>
      </trkpt>
      <trkpt lat="49.8856" lon="2.08713">
        <ele>123</ele>
        <time>2012-10-07T08:20:41Z</time>
      </trkpt>
      <trkpt lat="49.88548" lon="2.08714">
        <ele>117.3</ele>
        <time>2012-10-07T08:20:50Z</time>
      </trkpt>
      <trkpt lat="49.8855" lon="2.08708">
        <ele>116.3</ele>
        <time>2012-10-07T08:20:52Z</time>
      </trkpt>
      <trkpt lat="49.88536" lon="2.0871">
        <ele>112.7</ele>
        <time>2012-10-07T08:20:59Z</time>
      </trkpt>
      <trkpt lat="49.88522" lon="2.0871">
        <ele>108.1</ele>
        <time>2012-10-07T08:21:08Z</time>
      </trkpt>
      <trkpt lat="49.88508" lon="2.0871">
        <ele>108.6</ele>
        <time>2012-10-07T08:21:17Z</time>
      </trkpt>
      <trkpt lat="49.88494" lon="2.08707">
        <ele>111.8</ele>
        <time>2012-10-07T08:21:29Z</time>
      </trkpt>
      <trkpt lat="49.8848" lon="2.08706">
        <ele>109.9</ele>
        <time>2012-10-07T08:21:39Z</time>
      </trkpt>
      <trkpt lat="49.88467" lon="2.08702">
        <ele>111.9</ele>
        <time>2012-10-07T08:21:48Z</time>
      </trkpt>
      <trkpt lat="49.88452" lon="2.08703">
        <ele>111.5</ele>
        <time>2012-10-07T08:21:58Z</time>
      </trkpt>
      <trkpt lat="49.88431" lon="2.08718">
        <ele>111.7</ele>
        <time>2012-10-07T08:22:14Z</time>
      </trkpt>
      <trkpt lat="49.88431" lon="2.08718">
        <ele>111.7</ele>
        <time>2012-10-07T08:27:50Z</time>
      </trkpt>
      <trkpt lat="49.88424" lon="2.08724">
        <ele>114.2</ele>
        <time>2012-10-07T08:27:50Z</time>
      </trkpt>
      <trkpt lat="49.88413" lon="2.08739">
        <ele>119.9</ele>
        <time>2012-10-07T08:28:01Z</time>
      </trkpt>
      <trkpt lat="49.88402" lon="2.08753">
        <ele>121.3</ele>
        <time>2012-10-07T08:28:11Z</time>
      </trkpt>
      <trkpt lat="49.88391" lon="2.08765">
        <ele>118.5</ele>
        <time>2012-10-07T08:28:20Z</time>
      </trkpt>
      <trkpt lat="49.88376" lon="2.0877">
        <ele>114.1</ele>
        <time>2012-10-07T08:28:30Z</time>
      </trkpt>
      <trkpt lat="49.88365" lon="2.08767">
        <ele>111.4</ele>
        <time>2012-10-07T08:28:45Z</time>
      </trkpt>
      <trkpt lat="49.88365" lon="2.08767">
        <ele>111.4</ele>
        <time>2012-10-07T08:29:41Z</time>
      </trkpt>
      <trkpt lat="49.88378" lon="2.08767">
        <ele>112.4</ele>
        <time>2012-10-07T08:29:46Z</time>
      </trkpt>
      <trkpt lat="49.88378" lon="2.08767">
        <ele>112.4</ele>
        <time>2012-10-07T08:30:53Z</time>
      </trkpt>
      <trkpt lat="49.88409" lon="2.08741">
        <ele>116.2</ele>
        <time>2012-10-07T08:31:13Z</time>
      </trkpt>
      <trkpt lat="49.88409" lon="2.08741">
        <ele>116.2</ele>
        <time>2012-10-07T08:40:52Z</time>
      </trkpt>
      <trkpt lat="49.8843" lon="2.08717">
        <ele>116.2</ele>
        <time>2012-10-07T08:40:53Z</time>
      </trkpt>
      <trkpt lat="49.88439" lon="2.08701">
        <ele>114.7</ele>
        <time>2012-10-07T08:41:05Z</time>
      </trkpt>
      <trkpt lat="49.88436" lon="2.08681">
        <ele>117.6</ele>
        <time>2012-10-07T08:41:21Z</time>
      </trkpt>
      <trkpt lat="49.88426" lon="2.08665">
        <ele>117.6</ele>
        <time>2012-10-07T08:41:32Z</time>
      </trkpt>
      <trkpt lat="49.88416" lon="2.08649">
        <ele>118</ele>
        <time>2012-10-07T08:41:45Z</time>
      </trkpt>
      <trkpt lat="49.88404" lon="2.08638">
        <ele>120.6</ele>
        <time>2012-10-07T08:41:55Z</time>
      </trkpt>
      <trkpt lat="49.88391" lon="2.08622">
        <ele>121.9</ele>
        <time>2012-10-07T08:42:04Z</time>
      </trkpt>
      <trkpt lat="49.88382" lon="2.08606">
        <ele>121.8</ele>
        <time>2012-10-07T08:42:18Z</time>
      </trkpt>
      <trkpt lat="49.8837" lon="2.08591">
        <ele>115.2</ele>
        <time>2012-10-07T08:42:30Z</time>
      </trkpt>
      <trkpt lat="49.88359" lon="2.08575">
        <ele>111</ele>
        <time>2012-10-07T08:42:41Z</time>
      </trkpt>
      <trkpt lat="49.88349" lon="2.08558">
        <ele>116.5</ele>
        <time>2012-10-07T08:42:51Z</time>
      </trkpt>
      <trkpt lat="49.8834" lon="2.0854">
        <ele>116.6</ele>
        <time>2012-10-07T08:43:03Z</time>
      </trkpt>
      <trkpt lat="49.88331" lon="2.08522">
        <ele>116.1</ele>
        <time>2012-10-07T08:43:15Z</time>
      </trkpt>
      <trkpt lat="49.88324" lon="2.08503">
        <ele>118.3</ele>
        <time>2012-10-07T08:43:25Z</time>
      </trkpt>
      <trkpt lat="49.88313" lon="2.08487">
        <ele>119.7</ele>
        <time>2012-10-07T08:43:37Z</time>
      </trkpt>
      <trkpt lat="49.88305" lon="2.08469">
        <ele>120.6</ele>
        <time>2012-10-07T08:43:47Z</time>
      </trkpt>
      <trkpt lat="49.88298" lon="2.08449">
        <ele>121.4</ele>
        <time>2012-10-07T08:43:56Z</time>
      </trkpt>
      <trkpt lat="49.88293" lon="2.08429">
        <ele>122.4</ele>
        <time>2012-10-07T08:44:08Z</time>
      </trkpt>
      <trkpt lat="49.88286" lon="2.08409">
        <ele>123.3</ele>
        <time>2012-10-07T08:44:18Z</time>
      </trkpt>
      <trkpt lat="49.8828" lon="2.08388">
        <ele>124.1</ele>
        <time>2012-10-07T08:44:27Z</time>
      </trkpt>
      <trkpt lat="49.88273" lon="2.08369">
        <ele>116.8</ele>
        <time>2012-10-07T08:44:38Z</time>
      </trkpt>
      <trkpt lat="49.88262" lon="2.08354">
        <ele>118.4</ele>
        <time>2012-10-07T08:44:48Z</time>
      </trkpt>
      <trkpt lat="49.88251" lon="2.08337">
        <ele>120</ele>
        <time>2012-10-07T08:44:58Z</time>
      </trkpt>
      <trkpt lat="49.88238" lon="2.08328">
        <ele>116.7</ele>
        <time>2012-10-07T08:45:09Z</time>
      </trkpt>
      <trkpt lat="49.88225" lon="2.0832">
        <ele>114.7</ele>
        <time>2012-10-07T08:45:20Z</time>
      </trkpt>
      <trkpt lat="49.88211" lon="2.08315">
        <ele>116.8</ele>
        <time>2012-10-07T08:45:30Z</time>
      </trkpt>
      <trkpt lat="49.88197" lon="2.08311">
        <ele>118.8</ele>
        <time>2012-10-07T08:45:39Z</time>
      </trkpt>
      <trkpt lat="49.88183" lon="2.08308">
        <ele>120.3</ele>
        <time>2012-10-07T08:45:49Z</time>
      </trkpt>
      <trkpt lat="49.88169" lon="2.08304">
        <ele>119.8</ele>
        <time>2012-10-07T08:45:59Z</time>
      </trkpt>
      <trkpt lat="49.88155" lon="2.08301">
        <ele>118.5</ele>
        <time>2012-10-07T08:46:11Z</time>
      </trkpt>
      <trkpt lat="49.88141" lon="2.08299">
        <ele>118.6</ele>
        <time>2012-10-07T08:46:20Z</time>
      </trkpt>
      <trkpt lat="49.88127" lon="2.08295">
        <ele>116.4</ele>
        <time>2012-10-07T08:46:31Z</time>
      </trkpt>
      <trkpt lat="49.88113" lon="2.08292">
        <ele>120.3</ele>
        <time>2012-10-07T08:46:41Z</time>
      </trkpt>
      <trkpt lat="49.88099" lon="2.08288">
        <ele>120.6</ele>
        <time>2012-10-07T08:46:51Z</time>
      </trkpt>
      <trkpt lat="49.88086" lon="2.08285">
        <ele>114.1</ele>
        <time>2012-10-07T08:47:03Z</time>
      </trkpt>
      <trkpt lat="49.88072" lon="2.0828">
        <ele>119.1</ele>
        <time>2012-10-07T08:47:12Z</time>
      </trkpt>
      <trkpt lat="49.88059" lon="2.08277">
        <ele>117.8</ele>
        <time>2012-10-07T08:47:21Z</time>
      </trkpt>
      <trkpt lat="49.88045" lon="2.08275">
        <ele>116.4</ele>
        <time>2012-10-07T08:47:31Z</time>
      </trkpt>
      <trkpt lat="49.88031" lon="2.08272">
        <ele>114.8</ele>
        <time>2012-10-07T08:47:41Z</time>
      </trkpt>
      <trkpt lat="49.88017" lon="2.08266">
        <ele>112.9</ele>
        <time>2012-10-07T08:47:53Z</time>
      </trkpt>
      <trkpt lat="49.88003" lon="2.08263">
        <ele>115.9</ele>
        <time>2012-10-07T08:48:04Z</time>
      </trkpt>
      <trkpt lat="49.87989" lon="2.0826">
        <ele>118.2</ele>
        <time>2012-10-07T08:48:13Z</time>
      </trkpt>
      <trkpt lat="49.87975" lon="2.08255">
        <ele>120.1</ele>
        <time>2012-10-07T08:48:24Z</time>
      </trkpt>
      <trkpt lat="49.87961" lon="2.08253">
        <ele>120.8</ele>
        <time>2012-10-07T08:48:34Z</time>
      </trkpt>
      <trkpt lat="49.87947" lon="2.08248">
        <ele>117.4</ele>
        <time>2012-10-07T08:48:45Z</time>
      </trkpt>
      <trkpt lat="49.87933" lon="2.08245">
        <ele>117.6</ele>
        <time>2012-10-07T08:48:55Z</time>
      </trkpt>
      <trkpt lat="49.87918" lon="2.08242">
        <ele>119.9</ele>
        <time>2012-10-07T08:49:06Z</time>
      </trkpt>
      <trkpt lat="49.87904" lon="2.08242">
        <ele>119.1</ele>
        <time>2012-10-07T08:49:16Z</time>
      </trkpt>
      <trkpt lat="49.87891" lon="2.08242">
        <ele>118.3</ele>
        <time>2012-10-07T08:49:26Z</time>
      </trkpt>
      <trkpt lat="49.87876" lon="2.08242">
        <ele>117.3</ele>
        <time>2012-10-07T08:49:37Z</time>
      </trkpt>
      <trkpt lat="49.87861" lon="2.08242">
        <ele>116.4</ele>
        <time>2012-10-07T08:49:48Z</time>
      </trkpt>
      <trkpt lat="49.87848" lon="2.08242">
        <ele>115.5</ele>
        <time>2012-10-07T08:49:59Z</time>
      </trkpt>
      <trkpt lat="49.87833" lon="2.08246">
        <ele>114.8</ele>
        <time>2012-10-07T08:50:08Z</time>
      </trkpt>
      <trkpt lat="49.87819" lon="2.08247">
        <ele>119.7</ele>
        <time>2012-10-07T08:50:18Z</time>
      </trkpt>
      <trkpt lat="49.87806" lon="2.08247">
        <ele>120.2</ele>
        <time>2012-10-07T08:50:28Z</time>
      </trkpt>
      <trkpt lat="49.87791" lon="2.08248">
        <ele>120.8</ele>
        <time>2012-10-07T08:50:39Z</time>
      </trkpt>
      <trkpt lat="49.87776" lon="2.08248">
        <ele>121.4</ele>
        <time>2012-10-07T08:50:50Z</time>
      </trkpt>
      <trkpt lat="49.87762" lon="2.0825">
        <ele>121.9</ele>
        <time>2012-10-07T08:51:00Z</time>
      </trkpt>
      <trkpt lat="49.87748" lon="2.08251">
        <ele>122.3</ele>
        <time>2012-10-07T08:51:09Z</time>
      </trkpt>
      <trkpt lat="49.87734" lon="2.08252">
        <ele>122.9</ele>
        <time>2012-10-07T08:51:20Z</time>
      </trkpt>
      <trkpt lat="49.87721" lon="2.08253">
        <ele>119.4</ele>
        <time>2012-10-07T08:51:30Z</time>
      </trkpt>
      <trkpt lat="49.87707" lon="2.08254">
        <ele>122.5</ele>
        <time>2012-10-07T08:51:40Z</time>
      </trkpt>
      <trkpt lat="49.87692" lon="2.08257">
        <ele>118.4</ele>
        <time>2012-10-07T08:51:50Z</time>
      </trkpt>
      <trkpt lat="49.87678" lon="2.08258">
        <ele>118.3</ele>
        <time>2012-10-07T08:52:01Z</time>
      </trkpt>
      <trkpt lat="49.87663" lon="2.08259">
        <ele>119.3</ele>
        <time>2012-10-07T08:52:11Z</time>
      </trkpt>
      <trkpt lat="49.8765" lon="2.0826">
        <ele>120.2</ele>
        <time>2012-10-07T08:52:21Z</time>
      </trkpt>
      <trkpt lat="49.87636" lon="2.08261">
        <ele>119.8</ele>
        <time>2012-10-07T08:52:31Z</time>
      </trkpt>
      <trkpt lat="49.87621" lon="2.08263">
        <ele>117.9</ele>
        <time>2012-10-07T08:52:41Z</time>
      </trkpt>
      <trkpt lat="49.87607" lon="2.08262">
        <ele>117.2</ele>
        <time>2012-10-07T08:52:52Z</time>
      </trkpt>
      <trkpt lat="49.87593" lon="2.0826">
        <ele>119.2</ele>
        <time>2012-10-07T08:53:02Z</time>
      </trkpt>
      <trkpt lat="49.87579" lon="2.08261">
        <ele>118.1</ele>
        <time>2012-10-07T08:53:11Z</time>
      </trkpt>
      <trkpt lat="49.87564" lon="2.08262">
        <ele>119.4</ele>
        <time>2012-10-07T08:53:20Z</time>
      </trkpt>
      <trkpt lat="49.8755" lon="2.08264">
        <ele>116.5</ele>
        <time>2012-10-07T08:53:29Z</time>
      </trkpt>
      <trkpt lat="49.87536" lon="2.08266">
        <ele>119.9</ele>
        <time>2012-10-07T08:53:36Z</time>
      </trkpt>
      <trkpt lat="49.87522" lon="2.08268">
        <ele>120.4</ele>
        <time>2012-10-07T08:53:44Z</time>
      </trkpt>
      <trkpt lat="49.87508" lon="2.08264">
        <ele>120.9</ele>
        <time>2012-10-07T08:53:54Z</time>
      </trkpt>
      <trkpt lat="49.87493" lon="2.08261">
        <ele>121.3</ele>
        <time>2012-10-07T08:54:03Z</time>
      </trkpt>
      <trkpt lat="49.87479" lon="2.08259">
        <ele>121.8</ele>
        <time>2012-10-07T08:54:11Z</time>
      </trkpt>
      <trkpt lat="49.87465" lon="2.08256">
        <ele>122.2</ele>
        <time>2012-10-07T08:54:20Z</time>
      </trkpt>
      <trkpt lat="49.87451" lon="2.08256">
        <ele>122.6</ele>
        <time>2012-10-07T08:54:28Z</time>
      </trkpt>
      <trkpt lat="49.87436" lon="2.08255">
        <ele>123</ele>
        <time>2012-10-07T08:54:36Z</time>
      </trkpt>
      <trkpt lat="49.87422" lon="2.08253">
        <ele>123.4</ele>
        <time>2012-10-07T08:54:44Z</time>
      </trkpt>
      <trkpt lat="49.87408" lon="2.08249">
        <ele>124</ele>
        <time>2012-10-07T08:54:54Z</time>
      </trkpt>
      <trkpt lat="49.87394" lon="2.08247">
        <ele>124.4</ele>
        <time>2012-10-07T08:55:02Z</time>
      </trkpt>
      <trkpt lat="49.87379" lon="2.08243">
        <ele>121.8</ele>
        <time>2012-10-07T08:55:11Z</time>
      </trkpt>
      <trkpt lat="49.87365" lon="2.0824">
        <ele>118</ele>
        <time>2012-10-07T08:55:21Z</time>
      </trkpt>
      <trkpt lat="49.87351" lon="2.08238">
        <ele>120.4</ele>
        <time>2012-10-07T08:55:30Z</time>
      </trkpt>
      <trkpt lat="49.87336" lon="2.08236">
        <ele>119.2</ele>
        <time>2012-10-07T08:55:39Z</time>
      </trkpt>
      <trkpt lat="49.87321" lon="2.08232">
        <ele>118.6</ele>
        <time>2012-10-07T08:55:48Z</time>
      </trkpt>
      <trkpt lat="49.87308" lon="2.08227">
        <ele>113.8</ele>
        <time>2012-10-07T08:55:57Z</time>
      </trkpt>
      <trkpt lat="49.87292" lon="2.08223">
        <ele>116</ele>
        <time>2012-10-07T08:56:06Z</time>
      </trkpt>
      <trkpt lat="49.87278" lon="2.08218">
        <ele>119.4</ele>
        <time>2012-10-07T08:56:14Z</time>
      </trkpt>
      <trkpt lat="49.87263" lon="2.08217">
        <ele>120.1</ele>
        <time>2012-10-07T08:56:22Z</time>
      </trkpt>
      <trkpt lat="49.87249" lon="2.08215">
        <ele>119.3</ele>
        <time>2012-10-07T08:56:30Z</time>
      </trkpt>
      <trkpt lat="49.87235" lon="2.0821">
        <ele>118.4</ele>
        <time>2012-10-07T08:56:39Z</time>
      </trkpt>
      <trkpt lat="49.87221" lon="2.08207">
        <ele>117.5</ele>
        <time>2012-10-07T08:56:48Z</time>
      </trkpt>
      <trkpt lat="49.87206" lon="2.08203">
        <ele>116.5</ele>
        <time>2012-10-07T08:56:57Z</time>
      </trkpt>
      <trkpt lat="49.87192" lon="2.08202">
        <ele>118.7</ele>
        <time>2012-10-07T08:57:06Z</time>
      </trkpt>
      <trkpt lat="49.87178" lon="2.08199">
        <ele>122</ele>
        <time>2012-10-07T08:57:14Z</time>
      </trkpt>
      <trkpt lat="49.87163" lon="2.08198">
        <ele>119.1</ele>
        <time>2012-10-07T08:57:23Z</time>
      </trkpt>
      <trkpt lat="49.87149" lon="2.08194">
        <ele>118.9</ele>
        <time>2012-10-07T08:57:31Z</time>
      </trkpt>
      <trkpt lat="49.87134" lon="2.08191">
        <ele>122.6</ele>
        <time>2012-10-07T08:57:40Z</time>
      </trkpt>
      <trkpt lat="49.8712" lon="2.08185">
        <ele>124</ele>
        <time>2012-10-07T08:57:48Z</time>
      </trkpt>
      <trkpt lat="49.87105" lon="2.08184">
        <ele>125.1</ele>
        <time>2012-10-07T08:57:56Z</time>
      </trkpt>
      <trkpt lat="49.87091" lon="2.08179">
        <ele>122.8</ele>
        <time>2012-10-07T08:58:05Z</time>
      </trkpt>
      <trkpt lat="49.87078" lon="2.08174">
        <ele>125.5</ele>
        <time>2012-10-07T08:58:15Z</time>
      </trkpt>
      <trkpt lat="49.87063" lon="2.0817">
        <ele>126</ele>
        <time>2012-10-07T08:58:25Z</time>
      </trkpt>
      <trkpt lat="49.87049" lon="2.08166">
        <ele>126.2</ele>
        <time>2012-10-07T08:58:34Z</time>
      </trkpt>
      <trkpt lat="49.87036" lon="2.08162">
        <ele>125.2</ele>
        <time>2012-10-07T08:58:43Z</time>
      </trkpt>
      <trkpt lat="49.87022" lon="2.08158">
        <ele>124</ele>
        <time>2012-10-07T08:58:53Z</time>
      </trkpt>
      <trkpt lat="49.8701" lon="2.08169">
        <ele>122.5</ele>
        <time>2012-10-07T08:59:04Z</time>
      </trkpt>
      <trkpt lat="49.87006" lon="2.0819">
        <ele>120.2</ele>
        <time>2012-10-07T08:59:14Z</time>
      </trkpt>
      <trkpt lat="49.87001" lon="2.08209">
        <ele>119.7</ele>
        <time>2012-10-07T08:59:23Z</time>
      </trkpt>
      <trkpt lat="49.86996" lon="2.08231">
        <ele>122.8</ele>
        <time>2012-10-07T08:59:32Z</time>
      </trkpt>
      <trkpt lat="49.86991" lon="2.08251">
        <ele>121.3</ele>
        <time>2012-10-07T08:59:42Z</time>
      </trkpt>
      <trkpt lat="49.86987" lon="2.08272">
        <ele>119.9</ele>
        <time>2012-10-07T08:59:52Z</time>
      </trkpt>
      <trkpt lat="49.86981" lon="2.08293">
        <ele>118.4</ele>
        <time>2012-10-07T09:00:02Z</time>
      </trkpt>
      <trkpt lat="49.86976" lon="2.08313">
        <ele>120.8</ele>
        <time>2012-10-07T09:00:12Z</time>
      </trkpt>
      <trkpt lat="49.86971" lon="2.08333">
        <ele>119.8</ele>
        <time>2012-10-07T09:00:21Z</time>
      </trkpt>
      <trkpt lat="49.86966" lon="2.08353">
        <ele>122</ele>
        <time>2012-10-07T09:00:30Z</time>
      </trkpt>
      <trkpt lat="49.86961" lon="2.08374">
        <ele>114.8</ele>
        <time>2012-10-07T09:00:39Z</time>
      </trkpt>
      <trkpt lat="49.86958" lon="2.08394">
        <ele>120.6</ele>
        <time>2012-10-07T09:00:49Z</time>
      </trkpt>
      <trkpt lat="49.86951" lon="2.08416">
        <ele>120.4</ele>
        <time>2012-10-07T09:00:58Z</time>
      </trkpt>
      <trkpt lat="49.86946" lon="2.08436">
        <ele>117.3</ele>
        <time>2012-10-07T09:01:08Z</time>
      </trkpt>
      <trkpt lat="49.86941" lon="2.08457">
        <ele>117.7</ele>
        <time>2012-10-07T09:01:17Z</time>
      </trkpt>
      <trkpt lat="49.86937" lon="2.08479">
        <ele>118.8</ele>
        <time>2012-10-07T09:01:29Z</time>
      </trkpt>
      <trkpt lat="49.86931" lon="2.08499">
        <ele>119.6</ele>
        <time>2012-10-07T09:01:38Z</time>
      </trkpt>
      <trkpt lat="49.86926" lon="2.08519">
        <ele>120.3</ele>
        <time>2012-10-07T09:01:47Z</time>
      </trkpt>
      <trkpt lat="49.86921" lon="2.08538">
        <ele>118.8</ele>
        <time>2012-10-07T09:01:57Z</time>
      </trkpt>
      <trkpt lat="49.86916" lon="2.08558">
        <ele>117.2</ele>
        <time>2012-10-07T09:02:07Z</time>
      </trkpt>
      <trkpt lat="49.8691" lon="2.0858">
        <ele>116.1</ele>
        <time>2012-10-07T09:02:16Z</time>
      </trkpt>
      <trkpt lat="49.86906" lon="2.08603">
        <ele>117.6</ele>
        <time>2012-10-07T09:02:26Z</time>
      </trkpt>
      <trkpt lat="49.86901" lon="2.08623">
        <ele>118.9</ele>
        <time>2012-10-07T09:02:35Z</time>
      </trkpt>
      <trkpt lat="49.86897" lon="2.08645">
        <ele>122.1</ele>
        <time>2012-10-07T09:02:47Z</time>
      </trkpt>
      <trkpt lat="49.86893" lon="2.08666">
        <ele>119.9</ele>
        <time>2012-10-07T09:02:56Z</time>
      </trkpt>
      <trkpt lat="49.86887" lon="2.08687">
        <ele>125.4</ele>
        <time>2012-10-07T09:03:05Z</time>
      </trkpt>
      <trkpt lat="49.86884" lon="2.08709">
        <ele>122.4</ele>
        <time>2012-10-07T09:03:15Z</time>
      </trkpt>
      <trkpt lat="49.86877" lon="2.08729">
        <ele>121.6</ele>
        <time>2012-10-07T09:03:26Z</time>
      </trkpt>
      <trkpt lat="49.86872" lon="2.08749">
        <ele>123.1</ele>
        <time>2012-10-07T09:03:36Z</time>
      </trkpt>
      <trkpt lat="49.86868" lon="2.0877">
        <ele>123.8</ele>
        <time>2012-10-07T09:03:46Z</time>
      </trkpt>
      <trkpt lat="49.86863" lon="2.0879">
        <ele>119.5</ele>
        <time>2012-10-07T09:03:56Z</time>
      </trkpt>
      <trkpt lat="49.86857" lon="2.0881">
        <ele>119.6</ele>
        <time>2012-10-07T09:04:07Z</time>
      </trkpt>
      <trkpt lat="49.86854" lon="2.0883">
        <ele>121.5</ele>
        <time>2012-10-07T09:04:16Z</time>
      </trkpt>
      <trkpt lat="49.86848" lon="2.08853">
        <ele>124</ele>
        <time>2012-10-07T09:04:26Z</time>
      </trkpt>
      <trkpt lat="49.86843" lon="2.08874">
        <ele>121.7</ele>
        <time>2012-10-07T09:04:38Z</time>
      </trkpt>
      <trkpt lat="49.86839" lon="2.08896">
        <ele>125.6</ele>
        <time>2012-10-07T09:04:47Z</time>
      </trkpt>
      <trkpt lat="49.86833" lon="2.08915">
        <ele>125.4</ele>
        <time>2012-10-07T09:04:56Z</time>
      </trkpt>
      <trkpt lat="49.86828" lon="2.08936">
        <ele>124.2</ele>
        <time>2012-10-07T09:05:06Z</time>
      </trkpt>
      <trkpt lat="49.86823" lon="2.08956">
        <ele>121.2</ele>
        <time>2012-10-07T09:05:17Z</time>
      </trkpt>
      <trkpt lat="49.86819" lon="2.08977">
        <ele>119.2</ele>
        <time>2012-10-07T09:05:27Z</time>
      </trkpt>
      <trkpt lat="49.86813" lon="2.08997">
        <ele>120.8</ele>
        <time>2012-10-07T09:05:36Z</time>
      </trkpt>
      <trkpt lat="49.86809" lon="2.09019">
        <ele>122.9</ele>
        <time>2012-10-07T09:05:46Z</time>
      </trkpt>
      <trkpt lat="49.86804" lon="2.0904">
        <ele>125</ele>
        <time>2012-10-07T09:05:55Z</time>
      </trkpt>
      <trkpt lat="49.86799" lon="2.0906">
        <ele>123.9</ele>
        <time>2012-10-07T09:06:04Z</time>
      </trkpt>
      <trkpt lat="49.86795" lon="2.09082">
        <ele>123.5</ele>
        <time>2012-10-07T09:06:14Z</time>
      </trkpt>
      <trkpt lat="49.8679" lon="2.09103">
        <ele>125.7</ele>
        <time>2012-10-07T09:06:24Z</time>
      </trkpt>
      <trkpt lat="49.86785" lon="2.09123">
        <ele>119.6</ele>
        <time>2012-10-07T09:06:34Z</time>
      </trkpt>
      <trkpt lat="49.86779" lon="2.09143">
        <ele>121.8</ele>
        <time>2012-10-07T09:06:45Z</time>
      </trkpt>
      <trkpt lat="49.86774" lon="2.09164">
        <ele>122.6</ele>
        <time>2012-10-07T09:06:55Z</time>
      </trkpt>
      <trkpt lat="49.86769" lon="2.09185">
        <ele>123.5</ele>
        <time>2012-10-07T09:07:05Z</time>
      </trkpt>
      <trkpt lat="49.86765" lon="2.09207">
        <ele>124.3</ele>
        <time>2012-10-07T09:07:15Z</time>
      </trkpt>
      <trkpt lat="49.8676" lon="2.09229">
        <ele>122.4</ele>
        <time>2012-10-07T09:07:25Z</time>
      </trkpt>
      <trkpt lat="49.86755" lon="2.09249">
        <ele>120.5</ele>
        <time>2012-10-07T09:07:35Z</time>
      </trkpt>
      <trkpt lat="49.8675" lon="2.09269">
        <ele>119.1</ele>
        <time>2012-10-07T09:07:44Z</time>
      </trkpt>
      <trkpt lat="49.86744" lon="2.09288">
        <ele>117.4</ele>
        <time>2012-10-07T09:07:56Z</time>
      </trkpt>
      <trkpt lat="49.86733" lon="2.09304">
        <ele>120.7</ele>
        <time>2012-10-07T09:08:07Z</time>
      </trkpt>
      <trkpt lat="49.8672" lon="2.09312">
        <ele>121.7</ele>
        <time>2012-10-07T09:08:17Z</time>
      </trkpt>
      <trkpt lat="49.86706" lon="2.09321">
        <ele>122.6</ele>
        <time>2012-10-07T09:08:27Z</time>
      </trkpt>
      <trkpt lat="49.86694" lon="2.0933">
        <ele>123.5</ele>
        <time>2012-10-07T09:08:36Z</time>
      </trkpt>
      <trkpt lat="49.8668" lon="2.09336">
        <ele>124.5</ele>
        <time>2012-10-07T09:08:46Z</time>
      </trkpt>
      <trkpt lat="49.86668" lon="2.09344">
        <ele>125.3</ele>
        <time>2012-10-07T09:08:55Z</time>
      </trkpt>
      <trkpt lat="49.86654" lon="2.09352">
        <ele>125.1</ele>
        <time>2012-10-07T09:09:05Z</time>
      </trkpt>
      <trkpt lat="49.8664" lon="2.0936">
        <ele>124.8</ele>
        <time>2012-10-07T09:09:15Z</time>
      </trkpt>
      <trkpt lat="49.86627" lon="2.09368">
        <ele>124.6</ele>
        <time>2012-10-07T09:09:24Z</time>
      </trkpt>
      <trkpt lat="49.86614" lon="2.09375">
        <ele>124.4</ele>
        <time>2012-10-07T09:09:33Z</time>
      </trkpt>
      <trkpt lat="49.86598" lon="2.09384">
        <ele>124.2</ele>
        <time>2012-10-07T09:09:43Z</time>
      </trkpt>
      <trkpt lat="49.86584" lon="2.0939">
        <ele>123.9</ele>
        <time>2012-10-07T09:09:55Z</time>
      </trkpt>
      <trkpt lat="49.86571" lon="2.09398">
        <ele>123.6</ele>
        <time>2012-10-07T09:10:04Z</time>
      </trkpt>
      <trkpt lat="49.86558" lon="2.09405">
        <ele>123.4</ele>
        <time>2012-10-07T09:10:14Z</time>
      </trkpt>
      <trkpt lat="49.86546" lon="2.09414">
        <ele>123.2</ele>
        <time>2012-10-07T09:10:23Z</time>
      </trkpt>
      <trkpt lat="49.86533" lon="2.09422">
        <ele>123</ele>
        <time>2012-10-07T09:10:32Z</time>
      </trkpt>
      <trkpt lat="49.86519" lon="2.09429">
        <ele>122.7</ele>
        <time>2012-10-07T09:10:41Z</time>
      </trkpt>
      <trkpt lat="49.86506" lon="2.09436">
        <ele>122.5</ele>
        <time>2012-10-07T09:10:51Z</time>
      </trkpt>
      <trkpt lat="49.86493" lon="2.09444">
        <ele>122.2</ele>
        <time>2012-10-07T09:11:01Z</time>
      </trkpt>
      <trkpt lat="49.8648" lon="2.09452">
        <ele>122</ele>
        <time>2012-10-07T09:11:11Z</time>
      </trkpt>
      <trkpt lat="49.86466" lon="2.09457">
        <ele>121.7</ele>
        <time>2012-10-07T09:11:21Z</time>
      </trkpt>
      <trkpt lat="49.86453" lon="2.09463">
        <ele>121.5</ele>
        <time>2012-10-07T09:11:31Z</time>
      </trkpt>
      <trkpt lat="49.8644" lon="2.09471">
        <ele>121.3</ele>
        <time>2012-10-07T09:11:40Z</time>
      </trkpt>
      <trkpt lat="49.86427" lon="2.09478">
        <ele>121.1</ele>
        <time>2012-10-07T09:11:49Z</time>
      </trkpt>
      <trkpt lat="49.86413" lon="2.09482">
        <ele>120.8</ele>
        <time>2012-10-07T09:12:00Z</time>
      </trkpt>
      <trkpt lat="49.86397" lon="2.09488">
        <ele>121.4</ele>
        <time>2012-10-07T09:12:10Z</time>
      </trkpt>
      <trkpt lat="49.86383" lon="2.09494">
        <ele>123.6</ele>
        <time>2012-10-07T09:12:21Z</time>
      </trkpt>
      <trkpt lat="49.86369" lon="2.09499">
        <ele>121.5</ele>
        <time>2012-10-07T09:12:31Z</time>
      </trkpt>
      <trkpt lat="49.86355" lon="2.09506">
        <ele>123.5</ele>
        <time>2012-10-07T09:12:41Z</time>
      </trkpt>
      <trkpt lat="49.86341" lon="2.09513">
        <ele>121.8</ele>
        <time>2012-10-07T09:12:53Z</time>
      </trkpt>
      <trkpt lat="49.86328" lon="2.09522">
        <ele>126.5</ele>
        <time>2012-10-07T09:13:03Z</time>
      </trkpt>
      <trkpt lat="49.86314" lon="2.09526">
        <ele>126.5</ele>
        <time>2012-10-07T09:13:15Z</time>
      </trkpt>
      <trkpt lat="49.86298" lon="2.09531">
        <ele>124.8</ele>
        <time>2012-10-07T09:13:24Z</time>
      </trkpt>
      <trkpt lat="49.86285" lon="2.09535">
        <ele>126.1</ele>
        <time>2012-10-07T09:13:36Z</time>
      </trkpt>
      <trkpt lat="49.8627" lon="2.09538">
        <ele>123.9</ele>
        <time>2012-10-07T09:13:46Z</time>
      </trkpt>
      <trkpt lat="49.86256" lon="2.09542">
        <ele>126.4</ele>
        <time>2012-10-07T09:13:57Z</time>
      </trkpt>
      <trkpt lat="49.86242" lon="2.09543">
        <ele>121.9</ele>
        <time>2012-10-07T09:14:09Z</time>
      </trkpt>
      <trkpt lat="49.86228" lon="2.0955">
        <ele>124</ele>
        <time>2012-10-07T09:14:19Z</time>
      </trkpt>
      <trkpt lat="49.86216" lon="2.09559">
        <ele>123</ele>
        <time>2012-10-07T09:14:29Z</time>
      </trkpt>
      <trkpt lat="49.86203" lon="2.09571">
        <ele>125.4</ele>
        <time>2012-10-07T09:14:38Z</time>
      </trkpt>
      <trkpt lat="49.86191" lon="2.09583">
        <ele>127.1</ele>
        <time>2012-10-07T09:14:47Z</time>
      </trkpt>
      <trkpt lat="49.86181" lon="2.09597">
        <ele>126.4</ele>
        <time>2012-10-07T09:14:56Z</time>
      </trkpt>
      <trkpt lat="49.8617" lon="2.09609">
        <ele>125.7</ele>
        <time>2012-10-07T09:15:05Z</time>
      </trkpt>
      <trkpt lat="49.86161" lon="2.09625">
        <ele>124.9</ele>
        <time>2012-10-07T09:15:15Z</time>
      </trkpt>
      <trkpt lat="49.86166" lon="2.09647">
        <ele>123.6</ele>
        <time>2012-10-07T09:15:27Z</time>
      </trkpt>
      <trkpt lat="49.86174" lon="2.09666">
        <ele>122.3</ele>
        <time>2012-10-07T09:15:37Z</time>
      </trkpt>
      <trkpt lat="49.86183" lon="2.09682">
        <ele>121</ele>
        <time>2012-10-07T09:15:47Z</time>
      </trkpt>
      <trkpt lat="49.86203" lon="2.09725">
        <ele>123.9</ele>
        <time>2012-10-07T09:16:05Z</time>
      </trkpt>
      <trkpt lat="49.86203" lon="2.09725">
        <ele>123.9</ele>
        <time>2012-10-07T09:17:10Z</time>
      </trkpt>
      <trkpt lat="49.86229" lon="2.09777">
        <ele>125.2</ele>
        <time>2012-10-07T09:17:21Z</time>
      </trkpt>
      <trkpt lat="49.86229" lon="2.09777">
        <ele>125.2</ele>
        <time>2012-10-07T09:23:45Z</time>
      </trkpt>
      <trkpt lat="49.86243" lon="2.09804">
        <ele>126.3</ele>
        <time>2012-10-07T09:23:55Z</time>
      </trkpt>
      <trkpt lat="49.86252" lon="2.09821">
        <ele>124.3</ele>
        <time>2012-10-07T09:24:03Z</time>
      </trkpt>
      <trkpt lat="49.86262" lon="2.09838">
        <ele>123.2</ele>
        <time>2012-10-07T09:24:21Z</time>
      </trkpt>
      <trkpt lat="49.86272" lon="2.09853">
        <ele>123.1</ele>
        <time>2012-10-07T09:24:31Z</time>
      </trkpt>
      <trkpt lat="49.86286" lon="2.0987">
        <ele>123.1</ele>
        <time>2012-10-07T09:24:43Z</time>
      </trkpt>
      <trkpt lat="49.86298" lon="2.09882">
        <ele>122.9</ele>
        <time>2012-10-07T09:25:01Z</time>
      </trkpt>
      <trkpt lat="49.86311" lon="2.09891">
        <ele>122.9</ele>
        <time>2012-10-07T09:25:12Z</time>
      </trkpt>
      <trkpt lat="49.86324" lon="2.09898">
        <ele>122.8</ele>
        <time>2012-10-07T09:25:23Z</time>
      </trkpt>
      <trkpt lat="49.86335" lon="2.09912">
        <ele>122.7</ele>
        <time>2012-10-07T09:25:34Z</time>
      </trkpt>
      <trkpt lat="49.86348" lon="2.09919">
        <ele>122.6</ele>
        <time>2012-10-07T09:25:45Z</time>
      </trkpt>
      <trkpt lat="49.86361" lon="2.09928">
        <ele>122.6</ele>
        <time>2012-10-07T09:25:55Z</time>
      </trkpt>
      <trkpt lat="49.86373" lon="2.09939">
        <ele>122.5</ele>
        <time>2012-10-07T09:26:06Z</time>
      </trkpt>
      <trkpt lat="49.86384" lon="2.09951">
        <ele>122.4</ele>
        <time>2012-10-07T09:26:18Z</time>
      </trkpt>
      <trkpt lat="49.86395" lon="2.09966">
        <ele>122.3</ele>
        <time>2012-10-07T09:26:28Z</time>
      </trkpt>
      <trkpt lat="49.86404" lon="2.09984">
        <ele>122.3</ele>
        <time>2012-10-07T09:26:39Z</time>
      </trkpt>
      <trkpt lat="49.8641" lon="2.10002">
        <ele>122.2</ele>
        <time>2012-10-07T09:26:49Z</time>
      </trkpt>
      <trkpt lat="49.86418" lon="2.1002">
        <ele>121.7</ele>
        <time>2012-10-07T09:26:59Z</time>
      </trkpt>
      <trkpt lat="49.86426" lon="2.10039">
        <ele>121</ele>
        <time>2012-10-07T09:27:10Z</time>
      </trkpt>
      <trkpt lat="49.86436" lon="2.1006">
        <ele>120.4</ele>
        <time>2012-10-07T09:27:20Z</time>
      </trkpt>
      <trkpt lat="49.86444" lon="2.10077">
        <ele>125</ele>
        <time>2012-10-07T09:27:33Z</time>
      </trkpt>
      <trkpt lat="49.86453" lon="2.10093">
        <ele>126</ele>
        <time>2012-10-07T09:27:44Z</time>
      </trkpt>
      <trkpt lat="49.86464" lon="2.10107">
        <ele>122.4</ele>
        <time>2012-10-07T09:27:54Z</time>
      </trkpt>
      <trkpt lat="49.86476" lon="2.1012">
        <ele>125.2</ele>
        <time>2012-10-07T09:28:06Z</time>
      </trkpt>
      <trkpt lat="49.86487" lon="2.10131">
        <ele>120.6</ele>
        <time>2012-10-07T09:28:16Z</time>
      </trkpt>
      <trkpt lat="49.86499" lon="2.10142">
        <ele>119.5</ele>
        <time>2012-10-07T09:28:26Z</time>
      </trkpt>
      <trkpt lat="49.86512" lon="2.10154">
        <ele>122.2</ele>
        <time>2012-10-07T09:28:38Z</time>
      </trkpt>
      <trkpt lat="49.86523" lon="2.10167">
        <ele>120.6</ele>
        <time>2012-10-07T09:28:48Z</time>
      </trkpt>
      <trkpt lat="49.86535" lon="2.10177">
        <ele>117.4</ele>
        <time>2012-10-07T09:28:58Z</time>
      </trkpt>
      <trkpt lat="49.86546" lon="2.10191">
        <ele>120.3</ele>
        <time>2012-10-07T09:29:09Z</time>
      </trkpt>
      <trkpt lat="49.86559" lon="2.10204">
        <ele>123.4</ele>
        <time>2012-10-07T09:29:19Z</time>
      </trkpt>
      <trkpt lat="49.86571" lon="2.10217">
        <ele>126.1</ele>
        <time>2012-10-07T09:29:29Z</time>
      </trkpt>
      <trkpt lat="49.86581" lon="2.1023">
        <ele>122.1</ele>
        <time>2012-10-07T09:29:39Z</time>
      </trkpt>
      <trkpt lat="49.86592" lon="2.10243">
        <ele>122.5</ele>
        <time>2012-10-07T09:29:49Z</time>
      </trkpt>
      <trkpt lat="49.86602" lon="2.10257">
        <ele>123.1</ele>
        <time>2012-10-07T09:30:00Z</time>
      </trkpt>
      <trkpt lat="49.86614" lon="2.10271">
        <ele>124.6</ele>
        <time>2012-10-07T09:30:10Z</time>
      </trkpt>
      <trkpt lat="49.86626" lon="2.10285">
        <ele>126.2</ele>
        <time>2012-10-07T09:30:20Z</time>
      </trkpt>
      <trkpt lat="49.86638" lon="2.10294">
        <ele>119.7</ele>
        <time>2012-10-07T09:30:30Z</time>
      </trkpt>
      <trkpt lat="49.86651" lon="2.10301">
        <ele>119.5</ele>
        <time>2012-10-07T09:30:40Z</time>
      </trkpt>
      <trkpt lat="49.86666" lon="2.10306">
        <ele>123.7</ele>
        <time>2012-10-07T09:30:50Z</time>
      </trkpt>
      <trkpt lat="49.86679" lon="2.10313">
        <ele>122.9</ele>
        <time>2012-10-07T09:31:01Z</time>
      </trkpt>
      <trkpt lat="49.86693" lon="2.10321">
        <ele>122</ele>
        <time>2012-10-07T09:31:12Z</time>
      </trkpt>
      <trkpt lat="49.86706" lon="2.10331">
        <ele>121.2</ele>
        <time>2012-10-07T09:31:22Z</time>
      </trkpt>
      <trkpt lat="49.8672" lon="2.1034">
        <ele>120.9</ele>
        <time>2012-10-07T09:31:32Z</time>
      </trkpt>
      <trkpt lat="49.86733" lon="2.1035">
        <ele>120.5</ele>
        <time>2012-10-07T09:31:44Z</time>
      </trkpt>
      <trkpt lat="49.86746" lon="2.1036">
        <ele>119.6</ele>
        <time>2012-10-07T09:31:56Z</time>
      </trkpt>
      <trkpt lat="49.86759" lon="2.10368">
        <ele>116.9</ele>
        <time>2012-10-07T09:32:06Z</time>
      </trkpt>
      <trkpt lat="49.86773" lon="2.10376">
        <ele>122.3</ele>
        <time>2012-10-07T09:32:16Z</time>
      </trkpt>
      <trkpt lat="49.86787" lon="2.10382">
        <ele>128.3</ele>
        <time>2012-10-07T09:32:27Z</time>
      </trkpt>
      <trkpt lat="49.86801" lon="2.10391">
        <ele>120.3</ele>
        <time>2012-10-07T09:32:37Z</time>
      </trkpt>
      <trkpt lat="49.86818" lon="2.10401">
        <ele>116.9</ele>
        <time>2012-10-07T09:32:48Z</time>
      </trkpt>
      <trkpt lat="49.86831" lon="2.1041">
        <ele>122.3</ele>
        <time>2012-10-07T09:33:03Z</time>
      </trkpt>
      <trkpt lat="49.86848" lon="2.10424">
        <ele>120.9</ele>
        <time>2012-10-07T09:33:13Z</time>
      </trkpt>
      <trkpt lat="49.8686" lon="2.10434">
        <ele>118.3</ele>
        <time>2012-10-07T09:33:24Z</time>
      </trkpt>
      <trkpt lat="49.86872" lon="2.10444">
        <ele>117.6</ele>
        <time>2012-10-07T09:33:33Z</time>
      </trkpt>
      <trkpt lat="49.86887" lon="2.10455">
        <ele>116.8</ele>
        <time>2012-10-07T09:33:43Z</time>
      </trkpt>
      <trkpt lat="49.869" lon="2.10465">
        <ele>115.9</ele>
        <time>2012-10-07T09:33:54Z</time>
      </trkpt>
      <trkpt lat="49.86914" lon="2.10471">
        <ele>121.3</ele>
        <time>2012-10-07T09:34:06Z</time>
      </trkpt>
      <trkpt lat="49.86929" lon="2.10473">
        <ele>123.4</ele>
        <time>2012-10-07T09:34:15Z</time>
      </trkpt>
      <trkpt lat="49.86943" lon="2.10475">
        <ele>123.5</ele>
        <time>2012-10-07T09:34:25Z</time>
      </trkpt>
      <trkpt lat="49.86957" lon="2.10476">
        <ele>121.3</ele>
        <time>2012-10-07T09:34:35Z</time>
      </trkpt>
      <trkpt lat="49.86971" lon="2.10473">
        <ele>119.9</ele>
        <time>2012-10-07T09:34:44Z</time>
      </trkpt>
      <trkpt lat="49.86986" lon="2.10471">
        <ele>119.1</ele>
        <time>2012-10-07T09:34:54Z</time>
      </trkpt>
      <trkpt lat="49.87" lon="2.10472">
        <ele>124.9</ele>
        <time>2012-10-07T09:35:06Z</time>
      </trkpt>
      <trkpt lat="49.87015" lon="2.10476">
        <ele>114.6</ele>
        <time>2012-10-07T09:35:19Z</time>
      </trkpt>
      <trkpt lat="49.8703" lon="2.1048">
        <ele>118.1</ele>
        <time>2012-10-07T09:35:29Z</time>
      </trkpt>
      <trkpt lat="49.87046" lon="2.10484">
        <ele>119.3</ele>
        <time>2012-10-07T09:35:38Z</time>
      </trkpt>
      <trkpt lat="49.87059" lon="2.10491">
        <ele>122</ele>
        <time>2012-10-07T09:35:47Z</time>
      </trkpt>
      <trkpt lat="49.87071" lon="2.10502">
        <ele>119.9</ele>
        <time>2012-10-07T09:35:57Z</time>
      </trkpt>
      <trkpt lat="49.87084" lon="2.1051">
        <ele>115.7</ele>
        <time>2012-10-07T09:36:09Z</time>
      </trkpt>
      <trkpt lat="49.87097" lon="2.10517">
        <ele>118.5</ele>
        <time>2012-10-07T09:36:24Z</time>
      </trkpt>
      <trkpt lat="49.8711" lon="2.10524">
        <ele>115.5</ele>
        <time>2012-10-07T09:36:36Z</time>
      </trkpt>
      <trkpt lat="49.87124" lon="2.10529">
        <ele>117.6</ele>
        <time>2012-10-07T09:36:47Z</time>
      </trkpt>
      <trkpt lat="49.8714" lon="2.10542">
        <ele>120.2</ele>
        <time>2012-10-07T09:36:58Z</time>
      </trkpt>
      <trkpt lat="49.87156" lon="2.10549">
        <ele>115.7</ele>
        <time>2012-10-07T09:37:12Z</time>
      </trkpt>
      <trkpt lat="49.8717" lon="2.1055">
        <ele>119</ele>
        <time>2012-10-07T09:37:23Z</time>
      </trkpt>
      <trkpt lat="49.87195" lon="2.1053">
        <ele>117.5</ele>
        <time>2012-10-07T09:37:40Z</time>
      </trkpt>
      <trkpt lat="49.87195" lon="2.1053">
        <ele>117.5</ele>
        <time>2012-10-07T09:38:19Z</time>
      </trkpt>
      <trkpt lat="49.87208" lon="2.1052">
        <ele>116.6</ele>
        <time>2012-10-07T09:38:19Z</time>
      </trkpt>
      <trkpt lat="49.8724" lon="2.1053">
        <ele>116.2</ele>
        <time>2012-10-07T09:38:42Z</time>
      </trkpt>
      <trkpt lat="49.8724" lon="2.1053">
        <ele>116.2</ele>
        <time>2012-10-07T09:39:32Z</time>
      </trkpt>
      <trkpt lat="49.87258" lon="2.10548">
        <ele>116.3</ele>
        <time>2012-10-07T09:39:32Z</time>
      </trkpt>
      <trkpt lat="49.87273" lon="2.10563">
        <ele>118.9</ele>
        <time>2012-10-07T09:39:43Z</time>
      </trkpt>
      <trkpt lat="49.87289" lon="2.10573">
        <ele>121.2</ele>
        <time>2012-10-07T09:39:55Z</time>
      </trkpt>
      <trkpt lat="49.873" lon="2.10585">
        <ele>121.1</ele>
        <time>2012-10-07T09:40:09Z</time>
      </trkpt>
      <trkpt lat="49.8731" lon="2.10601">
        <ele>116.4</ele>
        <time>2012-10-07T09:40:23Z</time>
      </trkpt>
      <trkpt lat="49.87321" lon="2.10616">
        <ele>118.6</ele>
        <time>2012-10-07T09:40:33Z</time>
      </trkpt>
      <trkpt lat="49.87332" lon="2.10631">
        <ele>116.2</ele>
        <time>2012-10-07T09:40:44Z</time>
      </trkpt>
      <trkpt lat="49.87342" lon="2.10645">
        <ele>118.8</ele>
        <time>2012-10-07T09:40:59Z</time>
      </trkpt>
      <trkpt lat="49.87352" lon="2.1066">
        <ele>111.5</ele>
        <time>2012-10-07T09:41:10Z</time>
      </trkpt>
      <trkpt lat="49.87365" lon="2.10679">
        <ele>112.8</ele>
        <time>2012-10-07T09:41:22Z</time>
      </trkpt>
      <trkpt lat="49.87377" lon="2.10691">
        <ele>113.4</ele>
        <time>2012-10-07T09:41:38Z</time>
      </trkpt>
      <trkpt lat="49.87403" lon="2.10711">
        <ele>111.3</ele>
        <time>2012-10-07T09:42:05Z</time>
      </trkpt>
      <trkpt lat="49.87403" lon="2.10711">
        <ele>111.3</ele>
        <time>2012-10-07T09:43:04Z</time>
      </trkpt>
      <trkpt lat="49.87419" lon="2.10715">
        <ele>106</ele>
        <time>2012-10-07T09:43:10Z</time>
      </trkpt>
      <trkpt lat="49.87434" lon="2.10716">
        <ele>110.4</ele>
        <time>2012-10-07T09:43:33Z</time>
      </trkpt>
      <trkpt lat="49.87449" lon="2.10714">
        <ele>112.5</ele>
        <time>2012-10-07T09:44:18Z</time>
      </trkpt>
      <trkpt lat="49.87449" lon="2.10714">
        <ele>112.5</ele>
        <time>2012-10-07T09:45:19Z</time>
      </trkpt>
      <trkpt lat="49.87449" lon="2.10722">
        <ele>117.1</ele>
        <time>2012-10-07T09:45:21Z</time>
      </trkpt>
      <trkpt lat="49.87457" lon="2.10745">
        <ele>115</ele>
        <time>2012-10-07T09:45:58Z</time>
      </trkpt>
    </trkseg>
  </trk>
</gpx>